SIA494 WSSS-OMDB
Flight info
| Callsign | SIA494 |
|---|---|
| Flight time | 7h 9m |
| Altitude | 36000 |
| Route | AROSO5B AROSO Y513 KALIL Y504 GUNIP N571 BIKEN/N0489F380 N571 VUSET A454 PASOV B540 KUPMA/N0398F240 B540 MIVEK P574 IMPED |
| Aircraft | A388/J-SADE2E3FGHIJ3J4J5M1RWXY/LB1D1 |
Departure
| Time | 2026-05-07 13:01 |
|---|---|
| Airport | Singapore Changi Airport (WSSS) |
Arrival
| Time | 2026-05-07 20:10 |
|---|---|
| Airport | Dubai International Airport (OMDB) |
| Time | Latitude | Longitude | Altitude | Speed | Heading |
|---|---|---|---|---|---|
| 2026-05-07 12:12 | 1.35979 | 103.98694 | 29 ft | 0 kts | 112° |
| 2026-05-07 12:47 | 1.35983 | 103.98685 | 29 ft | 4 kts | 113° |
| 2026-05-07 12:47 | 1.35994 | 103.98661 | 27 ft | 4 kts | 114° |
| 2026-05-07 12:47 | 1.36005 | 103.98636 | 27 ft | 4 kts | 114° |
| 2026-05-07 12:48 | 1.36016 | 103.98611 | 27 ft | 4 kts | 111° |
| 2026-05-07 12:48 | 1.36024 | 103.98586 | 27 ft | 4 kts | 102° |
| 2026-05-07 12:48 | 1.36025 | 103.98561 | 27 ft | 4 kts | 80° |
| 2026-05-07 12:48 | 1.36021 | 103.98548 | 27 ft | 1 kts | 60° |
| 2026-05-07 12:53 | 1.36024 | 103.98554 | 29 ft | 3 kts | 60° |
| 2026-05-07 12:53 | 1.36049 | 103.98598 | 29 ft | 11 kts | 62° |
| 2026-05-07 12:53 | 1.36115 | 103.98654 | 29 ft | 15 kts | 17° |
| 2026-05-07 12:53 | 1.36228 | 103.98701 | 29 ft | 20 kts | 28° |
| 2026-05-07 12:54 | 1.36369 | 103.98762 | 29 ft | 24 kts | 22° |
| 2026-05-07 12:54 | 1.36527 | 103.98811 | 29 ft | 23 kts | 359° |
| 2026-05-07 12:54 | 1.36680 | 103.98803 | 29 ft | 22 kts | 11° |
| 2026-05-07 12:54 | 1.36823 | 103.98855 | 29 ft | 22 kts | 24° |
| 2026-05-07 12:55 | 1.36890 | 103.98885 | 29 ft | 0 kts | 24° |
| 2026-05-07 12:55 | 1.36892 | 103.98885 | 29 ft | 2 kts | 24° |
| 2026-05-07 12:55 | 1.36933 | 103.98905 | 29 ft | 11 kts | 30° |
| 2026-05-07 12:55 | 1.36950 | 103.98957 | 29 ft | 12 kts | 103° |
| 2026-05-07 12:56 | 1.36911 | 103.99074 | 29 ft | 21 kts | 112° |
| 2026-05-07 12:56 | 1.36855 | 103.99204 | 29 ft | 20 kts | 113° |
| 2026-05-07 12:56 | 1.36799 | 103.99335 | 29 ft | 21 kts | 113° |
| 2026-05-07 12:56 | 1.36750 | 103.99448 | 29 ft | 18 kts | 113° |
| 2026-05-07 12:57 | 1.36700 | 103.99565 | 29 ft | 19 kts | 112° |
| 2026-05-07 12:57 | 1.36651 | 103.99687 | 29 ft | 19 kts | 112° |
| 2026-05-07 12:57 | 1.36598 | 103.99807 | 29 ft | 16 kts | 124° |
| 2026-05-07 12:57 | 1.36560 | 103.99833 | 29 ft | 0 kts | 172° |
| 2026-05-07 12:58 | 1.36545 | 103.99832 | 29 ft | 5 kts | 186° |
| 2026-05-07 12:58 | 1.36488 | 103.99822 | 29 ft | 11 kts | 197° |
| 2026-05-07 12:58 | 1.36439 | 103.99812 | 29 ft | 0 kts | 171° |
| 2026-05-07 12:58 | 1.36433 | 103.99813 | 29 ft | 0 kts | 171° |
| 2026-05-07 12:59 | 1.36414 | 103.99818 | 29 ft | 7 kts | 156° |
| 2026-05-07 12:59 | 1.36339 | 103.99850 | 29 ft | 16 kts | 159° |
| 2026-05-07 12:59 | 1.36208 | 103.99880 | 29 ft | 22 kts | 187° |
| 2026-05-07 13:00 | 1.35959 | 103.99790 | 29 ft | 71 kts | 203° |
| 2026-05-07 13:00 | 1.35306 | 103.99511 | 29 ft | 132 kts | 203° |
| 2026-05-07 13:00 | 1.34333 | 103.99081 | 36 ft | 169 kts | 209° |
| 2026-05-07 13:00 | 1.33271 | 103.98614 | 580 ft | 159 kts | 203° |
| 2026-05-07 13:01 | 1.32248 | 103.98219 | 1069 ft | 158 kts | 202° |
| 2026-05-07 13:01 | 1.31196 | 103.97840 | 1482 ft | 163 kts | 201° |
| 2026-05-07 13:01 | 1.30112 | 103.97446 | 1860 ft | 171 kts | 201° |
| 2026-05-07 13:01 | 1.28962 | 103.96943 | 2069 ft | 189 kts | 204° |
| 2026-05-07 13:02 | 1.27723 | 103.96369 | 2232 ft | 204 kts | 204° |
| 2026-05-07 13:02 | 1.26390 | 103.95764 | 2332 ft | 216 kts | 204° |
| 2026-05-07 13:02 | 1.24991 | 103.95162 | 2413 ft | 229 kts | 201° |
| 2026-05-07 13:02 | 1.23346 | 103.94916 | 2607 ft | 251 kts | 173° |
| 2026-05-07 13:03 | 1.21676 | 103.95542 | 2985 ft | 265 kts | 143° |
| 2026-05-07 13:03 | 1.20290 | 103.96758 | 3670 ft | 267 kts | 138° |
| 2026-05-07 13:03 | 1.18900 | 103.98000 | 4419 ft | 269 kts | 139° |
| 2026-05-07 13:03 | 1.17482 | 103.99248 | 5117 ft | 272 kts | 137° |
| 2026-05-07 13:04 | 1.16369 | 104.00769 | 5822 ft | 275 kts | 112° |
| 2026-05-07 13:04 | 1.16050 | 104.02650 | 6509 ft | 279 kts | 85° |
| 2026-05-07 13:04 | 1.16614 | 104.04502 | 7168 ft | 282 kts | 59° |
| 2026-05-07 13:04 | 1.17804 | 104.06065 | 7818 ft | 285 kts | 51° |
| 2026-05-07 13:05 | 1.19073 | 104.07568 | 8456 ft | 287 kts | 49° |
| 2026-05-07 13:05 | 1.20544 | 104.08926 | 9113 ft | 291 kts | 37° |
| 2026-05-07 13:05 | 1.22268 | 104.09994 | 9758 ft | 294 kts | 28° |
| 2026-05-07 13:05 | 1.24076 | 104.10962 | 10298 ft | 299 kts | 30° |
| 2026-05-07 13:06 | 1.26021 | 104.11869 | 10444 ft | 319 kts | 16° |
| 2026-05-07 13:06 | 1.28279 | 104.12081 | 10605 ft | 338 kts | 354° |
| 2026-05-07 13:06 | 1.30572 | 104.11391 | 10858 ft | 352 kts | 332° |
| 2026-05-07 13:06 | 1.32539 | 104.09917 | 11398 ft | 356 kts | 320° |
| 2026-05-07 13:07 | 1.34421 | 104.08290 | 11919 ft | 359 kts | 320° |
| 2026-05-07 13:07 | 1.36320 | 104.06662 | 12457 ft | 362 kts | 321° |
| 2026-05-07 13:07 | 1.38249 | 104.05021 | 12991 ft | 366 kts | 321° |
| 2026-05-07 13:07 | 1.40197 | 104.03425 | 13508 ft | 368 kts | 326° |
| 2026-05-07 13:08 | 1.42395 | 104.02102 | 14007 ft | 369 kts | 335° |
| 2026-05-07 13:08 | 1.44774 | 104.01154 | 14473 ft | 370 kts | 345° |
| 2026-05-07 13:08 | 1.47246 | 104.00389 | 14957 ft | 373 kts | 344° |
| 2026-05-07 13:08 | 1.49726 | 103.99593 | 15427 ft | 376 kts | 344° |
| 2026-05-07 13:09 | 1.52219 | 103.98782 | 15919 ft | 379 kts | 344° |
| 2026-05-07 13:09 | 1.54743 | 103.97960 | 16400 ft | 382 kts | 344° |
| 2026-05-07 13:09 | 1.57277 | 103.97137 | 16853 ft | 384 kts | 344° |
| 2026-05-07 13:09 | 1.59827 | 103.96310 | 17305 ft | 388 kts | 344° |
| 2026-05-07 13:10 | 1.62401 | 103.95475 | 17751 ft | 390 kts | 344° |
| 2026-05-07 13:10 | 1.64995 | 103.94635 | 18195 ft | 393 kts | 344° |
| 2026-05-07 13:10 | 1.67576 | 103.93800 | 18569 ft | 395 kts | 344° |
| 2026-05-07 13:10 | 1.70197 | 103.92951 | 18922 ft | 398 kts | 344° |
| 2026-05-07 13:11 | 1.72833 | 103.92069 | 19291 ft | 401 kts | 340° |
| 2026-05-07 13:11 | 1.75295 | 103.90741 | 19665 ft | 407 kts | 326° |
| 2026-05-07 13:11 | 1.77428 | 103.88848 | 20014 ft | 413 kts | 313° |
| 2026-05-07 13:11 | 1.79197 | 103.86572 | 20361 ft | 416 kts | 309° |
| 2026-05-07 13:12 | 1.80958 | 103.84266 | 20730 ft | 418 kts | 309° |
| 2026-05-07 13:12 | 1.82743 | 103.81956 | 21079 ft | 421 kts | 309° |
| 2026-05-07 13:12 | 1.84512 | 103.79673 | 21433 ft | 423 kts | 309° |
| 2026-05-07 13:12 | 1.86317 | 103.77342 | 21778 ft | 425 kts | 309° |
| 2026-05-07 13:13 | 1.88132 | 103.74996 | 22113 ft | 428 kts | 309° |
| 2026-05-07 13:13 | 1.89956 | 103.72637 | 22466 ft | 430 kts | 309° |
| 2026-05-07 13:13 | 1.91785 | 103.70264 | 22808 ft | 432 kts | 309° |
| 2026-05-07 13:13 | 1.93625 | 103.67872 | 23142 ft | 435 kts | 309° |
| 2026-05-07 13:14 | 1.95468 | 103.65475 | 23451 ft | 437 kts | 309° |
| 2026-05-07 13:14 | 1.97323 | 103.63063 | 23739 ft | 438 kts | 309° |
| 2026-05-07 13:14 | 1.99161 | 103.60674 | 24040 ft | 440 kts | 309° |
| 2026-05-07 13:14 | 2.01027 | 103.58248 | 24327 ft | 441 kts | 309° |
| 2026-05-07 13:15 | 2.02903 | 103.55808 | 24600 ft | 443 kts | 309° |
| 2026-05-07 13:15 | 2.04782 | 103.53366 | 24880 ft | 445 kts | 309° |
| 2026-05-07 13:15 | 2.06672 | 103.50909 | 25137 ft | 446 kts | 309° |
| 2026-05-07 13:15 | 2.08569 | 103.48442 | 25425 ft | 448 kts | 309° |
| 2026-05-07 13:16 | 2.10467 | 103.45975 | 25708 ft | 449 kts | 308° |
| 2026-05-07 13:16 | 2.12368 | 103.43481 | 25984 ft | 451 kts | 306° |
| 2026-05-07 13:16 | 2.14026 | 103.40812 | 26254 ft | 454 kts | 298° |
| 2026-05-07 13:16 | 2.15330 | 103.37934 | 26565 ft | 456 kts | 291° |
| 2026-05-07 13:17 | 2.16274 | 103.34944 | 26839 ft | 458 kts | 286° |
| 2026-05-07 13:17 | 2.17153 | 103.31867 | 27127 ft | 460 kts | 287° |
| 2026-05-07 13:17 | 2.18051 | 103.28799 | 27460 ft | 462 kts | 287° |
| 2026-05-07 13:17 | 2.18961 | 103.25711 | 27754 ft | 464 kts | 287° |
| 2026-05-07 13:18 | 2.19873 | 103.22611 | 28074 ft | 465 kts | 287° |
| 2026-05-07 13:18 | 2.20786 | 103.19503 | 28395 ft | 467 kts | 287° |
| 2026-05-07 13:18 | 2.21702 | 103.16378 | 28720 ft | 469 kts | 287° |
| 2026-05-07 13:18 | 2.22620 | 103.13244 | 29063 ft | 471 kts | 287° |
| 2026-05-07 13:19 | 2.23531 | 103.10129 | 29396 ft | 474 kts | 286° |
| 2026-05-07 13:19 | 2.24458 | 103.06964 | 29771 ft | 476 kts | 286° |
| 2026-05-07 13:19 | 2.25390 | 103.03780 | 30095 ft | 478 kts | 286° |
| 2026-05-07 13:19 | 2.26324 | 103.00588 | 30397 ft | 481 kts | 286° |
| 2026-05-07 13:20 | 2.27267 | 102.97366 | 30712 ft | 483 kts | 286° |
| 2026-05-07 13:20 | 2.28212 | 102.94138 | 31030 ft | 486 kts | 286° |
| 2026-05-07 13:20 | 2.29164 | 102.90885 | 31344 ft | 488 kts | 286° |
| 2026-05-07 13:20 | 2.30119 | 102.87619 | 31675 ft | 491 kts | 286° |
| 2026-05-07 13:21 | 2.31082 | 102.84332 | 31996 ft | 493 kts | 286° |
| 2026-05-07 13:21 | 2.32045 | 102.81054 | 32316 ft | 496 kts | 286° |
| 2026-05-07 13:21 | 2.33006 | 102.77790 | 32617 ft | 498 kts | 286° |
| 2026-05-07 13:21 | 2.33666 | 102.75537 | 32839 ft | 500 kts | 286° |
| 2026-05-07 13:22 | 2.34446 | 102.72868 | 33049 ft | 492 kts | 286° |
| 2026-05-07 13:22 | 2.35395 | 102.69616 | 32780 ft | 484 kts | 286° |
| 2026-05-07 13:22 | 2.36339 | 102.66384 | 32452 ft | 483 kts | 286° |
| 2026-05-07 13:22 | 2.37280 | 102.63161 | 32320 ft | 485 kts | 286° |
| 2026-05-07 13:23 | 2.39182 | 102.56650 | 32469 ft | 497 kts | 286° |
| 2026-05-07 13:23 | 2.40153 | 102.53322 | 32781 ft | 500 kts | 286° |
| 2026-05-07 13:23 | 2.41129 | 102.49982 | 33108 ft | 502 kts | 286° |
| 2026-05-07 13:24 | 2.42108 | 102.46629 | 33441 ft | 504 kts | 286° |
| 2026-05-07 13:24 | 2.43093 | 102.43254 | 33762 ft | 506 kts | 286° |
| 2026-05-07 13:24 | 2.44082 | 102.39868 | 34053 ft | 508 kts | 286° |
| 2026-05-07 13:24 | 2.45150 | 102.36487 | 34341 ft | 510 kts | 291° |
| 2026-05-07 13:25 | 2.46555 | 102.33236 | 34637 ft | 511 kts | 297° |
| 2026-05-07 13:25 | 2.48300 | 102.30134 | 35025 ft | 510 kts | 303° |
| 2026-05-07 13:25 | 2.50334 | 102.27234 | 35434 ft | 509 kts | 307° |
| 2026-05-07 13:25 | 2.52417 | 102.24438 | 35781 ft | 508 kts | 307° |
| 2026-05-07 13:26 | 2.56611 | 102.18730 | 35827 ft | 511 kts | 307° |
| 2026-05-07 13:26 | 2.60825 | 102.12994 | 35830 ft | 511 kts | 307° |
| 2026-05-07 13:27 | 2.65025 | 102.07286 | 35827 ft | 511 kts | 307° |
| 2026-05-07 13:27 | 2.69237 | 102.01564 | 35827 ft | 511 kts | 307° |
| 2026-05-07 13:28 | 2.73420 | 101.95881 | 35827 ft | 511 kts | 307° |
| 2026-05-07 13:28 | 2.77638 | 101.90150 | 35829 ft | 511 kts | 307° |
| 2026-05-07 13:29 | 2.81851 | 101.84424 | 35829 ft | 512 kts | 307° |
| 2026-05-07 13:29 | 2.86046 | 101.78722 | 35832 ft | 512 kts | 307° |
| 2026-05-07 13:30 | 2.90263 | 101.72989 | 35832 ft | 512 kts | 307° |
| 2026-05-07 13:30 | 2.94479 | 101.67257 | 35831 ft | 512 kts | 307° |
| 2026-05-07 13:31 | 2.98693 | 101.61526 | 35849 ft | 512 kts | 307° |
| 2026-05-07 13:31 | 3.02914 | 101.55787 | 35855 ft | 512 kts | 307° |
| 2026-05-07 13:32 | 3.07058 | 101.50150 | 35856 ft | 511 kts | 307° |
| 2026-05-07 13:32 | 3.11197 | 101.44483 | 35854 ft | 504 kts | 307° |
| 2026-05-07 13:33 | 3.15314 | 101.38866 | 35848 ft | 497 kts | 307° |
| 2026-05-07 13:33 | 3.19383 | 101.33329 | 35843 ft | 490 kts | 307° |
| 2026-05-07 13:34 | 3.25387 | 101.25160 | 35835 ft | 481 kts | 307° |
| 2026-05-07 13:35 | 3.29301 | 101.19831 | 35835 ft | 476 kts | 307° |
| 2026-05-07 13:35 | 3.33196 | 101.14529 | 35833 ft | 470 kts | 307° |
| 2026-05-07 13:36 | 3.37015 | 101.09255 | 35836 ft | 465 kts | 306° |
| 2026-05-07 13:36 | 3.40713 | 101.03973 | 35837 ft | 461 kts | 306° |
| 2026-05-07 13:37 | 3.44377 | 100.98758 | 35836 ft | 456 kts | 306° |
| 2026-05-07 13:37 | 3.47996 | 100.93624 | 35835 ft | 452 kts | 306° |
| 2026-05-07 13:38 | 3.51603 | 100.88510 | 35835 ft | 448 kts | 306° |
| 2026-05-07 13:38 | 3.55177 | 100.83443 | 35836 ft | 444 kts | 306° |
| 2026-05-07 13:39 | 3.58722 | 100.78415 | 35836 ft | 440 kts | 306° |
| 2026-05-07 13:39 | 3.62253 | 100.73502 | 35836 ft | 436 kts | 307° |
| 2026-05-07 13:40 | 3.65812 | 100.68645 | 35837 ft | 432 kts | 307° |
| 2026-05-07 13:40 | 3.69340 | 100.63809 | 35840 ft | 428 kts | 307° |
| 2026-05-07 13:41 | 3.72829 | 100.59015 | 35837 ft | 424 kts | 307° |
| 2026-05-07 13:41 | 3.76271 | 100.54283 | 35837 ft | 421 kts | 307° |
| 2026-05-07 13:42 | 3.79696 | 100.49575 | 35836 ft | 417 kts | 307° |
| 2026-05-07 13:42 | 3.83099 | 100.44897 | 35842 ft | 413 kts | 307° |
| 2026-05-07 13:43 | 3.86464 | 100.40270 | 35839 ft | 409 kts | 307° |
| 2026-05-07 13:43 | 3.89792 | 100.35692 | 35840 ft | 405 kts | 307° |
| 2026-05-07 13:44 | 3.93070 | 100.31184 | 35840 ft | 401 kts | 307° |
| 2026-05-07 13:44 | 3.96329 | 100.26700 | 35844 ft | 396 kts | 307° |
| 2026-05-07 13:45 | 3.99556 | 100.22261 | 35845 ft | 391 kts | 307° |
| 2026-05-07 13:45 | 4.02738 | 100.17882 | 35844 ft | 386 kts | 307° |
| 2026-05-07 13:46 | 4.05857 | 100.13590 | 35845 ft | 381 kts | 307° |
| 2026-05-07 13:46 | 4.08950 | 100.09331 | 35846 ft | 375 kts | 307° |
| 2026-05-07 13:47 | 4.11997 | 100.05136 | 35844 ft | 369 kts | 307° |
| 2026-05-07 13:47 | 4.14986 | 100.01020 | 35848 ft | 362 kts | 307° |
| 2026-05-07 13:48 | 4.17893 | 99.97016 | 35847 ft | 354 kts | 307° |
| 2026-05-07 13:48 | 4.20750 | 99.93081 | 35847 ft | 344 kts | 307° |
| 2026-05-07 13:49 | 4.23518 | 99.89269 | 35794 ft | 335 kts | 309° |
| 2026-05-07 13:49 | 4.24923 | 99.87390 | 35499 ft | 340 kts | 310° |
| 2026-05-07 13:49 | 4.26386 | 99.85502 | 35183 ft | 345 kts | 311° |
| 2026-05-07 13:49 | 4.27895 | 99.83624 | 35044 ft | 345 kts | 312° |
| 2026-05-07 13:50 | 4.29418 | 99.81790 | 35022 ft | 340 kts | 313° |
| 2026-05-07 13:50 | 4.32484 | 99.78268 | 34812 ft | 337 kts | 315° |
| 2026-05-07 13:50 | 4.34033 | 99.76594 | 34708 ft | 342 kts | 316° |
| 2026-05-07 13:51 | 4.35650 | 99.74835 | 34772 ft | 343 kts | 315° |
| 2026-05-07 13:51 | 4.37191 | 99.72946 | 34376 ft | 364 kts | 298° |
| 2026-05-07 13:51 | 4.38336 | 99.70564 | 33782 ft | 393 kts | 294° |
| 2026-05-07 13:51 | 4.39543 | 99.68029 | 33440 ft | 412 kts | 298° |
| 2026-05-07 13:52 | 4.40971 | 99.65541 | 33496 ft | 421 kts | 302° |
| 2026-05-07 13:52 | 4.44333 | 99.60590 | 33667 ft | 438 kts | 306° |
| 2026-05-07 13:53 | 4.47990 | 99.55552 | 33825 ft | 455 kts | 307° |
| 2026-05-07 13:53 | 4.52008 | 99.50518 | 33972 ft | 471 kts | 312° |
| 2026-05-07 13:53 | 4.54175 | 99.48046 | 34171 ft | 475 kts | 312° |
| 2026-05-07 13:54 | 4.56361 | 99.45535 | 34468 ft | 476 kts | 312° |
| 2026-05-07 13:54 | 4.58510 | 99.43062 | 34758 ft | 478 kts | 312° |
| 2026-05-07 13:54 | 4.60689 | 99.40553 | 35058 ft | 479 kts | 312° |
| 2026-05-07 13:54 | 4.62877 | 99.38034 | 35361 ft | 480 kts | 312° |
| 2026-05-07 13:55 | 4.65077 | 99.35502 | 35655 ft | 481 kts | 312° |
| 2026-05-07 13:55 | 4.67278 | 99.32969 | 35839 ft | 485 kts | 312° |
| 2026-05-07 13:55 | 4.69511 | 99.30399 | 35858 ft | 493 kts | 311° |
| 2026-05-07 13:56 | 4.74058 | 99.25166 | 35860 ft | 510 kts | 311° |
| 2026-05-07 13:56 | 4.78758 | 99.19754 | 35860 ft | 513 kts | 311° |
| 2026-05-07 13:57 | 4.83443 | 99.14357 | 35859 ft | 513 kts | 311° |
| 2026-05-07 13:57 | 4.88130 | 99.08958 | 35861 ft | 514 kts | 311° |
| 2026-05-07 13:58 | 4.92822 | 99.03553 | 35861 ft | 514 kts | 311° |
| 2026-05-07 13:58 | 4.97515 | 98.98144 | 35858 ft | 514 kts | 311° |
| 2026-05-07 13:59 | 5.02171 | 98.92777 | 35854 ft | 514 kts | 311° |
| 2026-05-07 13:59 | 5.06867 | 98.87363 | 35853 ft | 514 kts | 311° |
| 2026-05-07 14:00 | 5.11560 | 98.81950 | 35853 ft | 515 kts | 311° |
| 2026-05-07 14:00 | 5.16249 | 98.76541 | 35861 ft | 515 kts | 311° |
| 2026-05-07 14:01 | 5.20956 | 98.71110 | 35863 ft | 515 kts | 311° |
| 2026-05-07 14:01 | 5.25626 | 98.65721 | 35870 ft | 515 kts | 311° |
| 2026-05-07 14:02 | 5.30317 | 98.60305 | 35872 ft | 515 kts | 311° |
| 2026-05-07 14:02 | 5.35017 | 98.54878 | 35870 ft | 514 kts | 311° |
| 2026-05-07 14:03 | 5.39702 | 98.49467 | 35867 ft | 514 kts | 311° |
| 2026-05-07 14:03 | 5.44364 | 98.44081 | 35863 ft | 514 kts | 312° |
| 2026-05-07 14:04 | 5.49042 | 98.38675 | 35862 ft | 513 kts | 311° |
| 2026-05-07 14:04 | 5.53706 | 98.33284 | 35861 ft | 502 kts | 311° |
| 2026-05-07 14:04 | 5.55752 | 98.30917 | 35859 ft | 489 kts | 311° |
| 2026-05-07 14:05 | 5.57345 | 98.29075 | 35860 ft | 478 kts | 311° |
| 2026-05-07 14:05 | 5.59471 | 98.26616 | 35858 ft | 465 kts | 312° |
| 2026-05-07 14:05 | 5.61556 | 98.24203 | 35860 ft | 452 kts | 312° |
| 2026-05-07 14:05 | 5.63590 | 98.21851 | 35857 ft | 439 kts | 312° |
| 2026-05-07 14:06 | 5.65563 | 98.19568 | 35857 ft | 427 kts | 312° |
| 2026-05-07 14:06 | 5.67474 | 98.17358 | 35857 ft | 414 kts | 312° |
| 2026-05-07 14:06 | 5.69335 | 98.15203 | 35858 ft | 402 kts | 312° |
| 2026-05-07 14:06 | 5.71139 | 98.13116 | 35861 ft | 390 kts | 312° |
| 2026-05-07 14:07 | 5.72887 | 98.11092 | 35857 ft | 377 kts | 312° |
| 2026-05-07 14:07 | 5.74580 | 98.09133 | 35860 ft | 364 kts | 312° |
| 2026-05-07 14:07 | 5.76208 | 98.07247 | 35858 ft | 351 kts | 312° |
| 2026-05-07 14:07 | 5.77758 | 98.05453 | 35856 ft | 337 kts | 312° |
| 2026-05-07 14:08 | 5.79267 | 98.03713 | 35716 ft | 328 kts | 315° |
| 2026-05-07 14:08 | 5.80807 | 98.01998 | 35147 ft | 334 kts | 316° |
| 2026-05-07 14:08 | 5.82419 | 98.00276 | 34544 ft | 342 kts | 317° |
| 2026-05-07 14:08 | 5.84085 | 97.98568 | 34167 ft | 341 kts | 318° |
| 2026-05-07 14:09 | 5.85759 | 97.96917 | 33965 ft | 334 kts | 319° |
| 2026-05-07 14:09 | 5.87431 | 97.95327 | 33715 ft | 329 kts | 320° |
| 2026-05-07 14:09 | 5.89114 | 97.93782 | 33319 ft | 330 kts | 321° |
| 2026-05-07 14:09 | 5.90824 | 97.92240 | 33002 ft | 329 kts | 321° |
| 2026-05-07 14:10 | 5.92525 | 97.90719 | 32624 ft | 329 kts | 320° |
| 2026-05-07 14:10 | 5.94033 | 97.88968 | 32049 ft | 335 kts | 302° |
| 2026-05-07 14:10 | 5.95143 | 97.86947 | 31627 ft | 337 kts | 297° |
| 2026-05-07 14:10 | 5.96258 | 97.84870 | 31251 ft | 338 kts | 301° |
| 2026-05-07 14:11 | 5.97532 | 97.82881 | 31027 ft | 339 kts | 306° |
| 2026-05-07 14:11 | 5.98981 | 97.80942 | 30559 ft | 362 kts | 310° |
| 2026-05-07 14:11 | 6.00641 | 97.78930 | 30268 ft | 383 kts | 311° |
| 2026-05-07 14:12 | 6.04207 | 97.74796 | 30671 ft | 393 kts | 312° |
| 2026-05-07 14:12 | 6.05989 | 97.72739 | 31140 ft | 390 kts | 312° |
| 2026-05-07 14:12 | 6.07740 | 97.70714 | 31626 ft | 386 kts | 311° |
| 2026-05-07 14:12 | 6.09520 | 97.68652 | 32020 ft | 386 kts | 311° |
| 2026-05-07 14:13 | 6.11265 | 97.66630 | 32306 ft | 389 kts | 311° |
| 2026-05-07 14:13 | 6.13042 | 97.64569 | 32598 ft | 391 kts | 311° |
| 2026-05-07 14:13 | 6.14825 | 97.62499 | 32874 ft | 395 kts | 311° |
| 2026-05-07 14:14 | 6.17965 | 97.57830 | 33028 ft | 413 kts | 297° |
| 2026-05-07 14:14 | 6.20063 | 97.52331 | 33191 ft | 431 kts | 285° |
| 2026-05-07 14:15 | 6.21773 | 97.46470 | 33370 ft | 449 kts | 286° |
| 2026-05-07 14:15 | 6.23591 | 97.40339 | 33543 ft | 466 kts | 286° |
| 2026-05-07 14:16 | 6.25467 | 97.33983 | 33710 ft | 483 kts | 286° |
| 2026-05-07 14:16 | 6.27401 | 97.27419 | 33861 ft | 498 kts | 286° |
| 2026-05-07 14:17 | 6.29401 | 97.20627 | 34014 ft | 514 kts | 287° |
| 2026-05-07 14:17 | 6.31451 | 97.13657 | 34368 ft | 523 kts | 287° |
| 2026-05-07 14:17 | 6.32122 | 97.11377 | 34653 ft | 522 kts | 287° |
| 2026-05-07 14:18 | 6.32917 | 97.08654 | 34865 ft | 516 kts | 286° |
| 2026-05-07 14:18 | 6.33919 | 97.05204 | 34778 ft | 514 kts | 286° |
| 2026-05-07 14:18 | 6.34922 | 97.01760 | 34671 ft | 513 kts | 286° |
| 2026-05-07 14:19 | 6.35925 | 96.98336 | 34722 ft | 508 kts | 287° |
| 2026-05-07 14:19 | 6.36916 | 96.94955 | 34993 ft | 497 kts | 287° |
| 2026-05-07 14:19 | 6.37105 | 96.94313 | 35069 ft | 495 kts | 287° |
| 2026-05-07 14:20 | 6.37438 | 96.93179 | 35216 ft | 490 kts | 287° |
| 2026-05-07 14:20 | 6.37884 | 96.91661 | 35416 ft | 483 kts | 287° |
| 2026-05-07 14:21 | 6.38570 | 96.89327 | 35709 ft | 474 kts | 287° |
| 2026-05-07 14:21 | 6.39498 | 96.86169 | 35843 ft | 469 kts | 287° |
| 2026-05-07 14:21 | 6.40416 | 96.83042 | 35853 ft | 466 kts | 287° |
| 2026-05-07 14:22 | 6.42243 | 96.76821 | 35851 ft | 462 kts | 287° |
| 2026-05-07 14:22 | 6.44039 | 96.70695 | 35855 ft | 457 kts | 287° |
| 2026-05-07 14:23 | 6.45829 | 96.64589 | 35851 ft | 453 kts | 287° |
| 2026-05-07 14:23 | 6.47603 | 96.58534 | 35850 ft | 450 kts | 287° |
| 2026-05-07 14:24 | 6.49361 | 96.52528 | 35849 ft | 446 kts | 287° |
| 2026-05-07 14:24 | 6.51494 | 96.46764 | 35854 ft | 441 kts | 297° |
| 2026-05-07 14:25 | 6.54224 | 96.41270 | 35853 ft | 438 kts | 297° |
| 2026-05-07 14:25 | 6.56905 | 96.35796 | 35853 ft | 434 kts | 297° |
| 2026-05-07 14:26 | 6.59563 | 96.30375 | 35855 ft | 431 kts | 297° |
| 2026-05-07 14:26 | 6.62205 | 96.24989 | 35852 ft | 427 kts | 297° |
| 2026-05-07 14:27 | 6.64807 | 96.19685 | 35852 ft | 424 kts | 297° |
| 2026-05-07 14:27 | 6.67403 | 96.14392 | 35851 ft | 421 kts | 297° |
| 2026-05-07 14:28 | 6.69981 | 96.09133 | 35849 ft | 417 kts | 297° |
| 2026-05-07 14:28 | 6.72536 | 96.03919 | 35850 ft | 414 kts | 297° |
| 2026-05-07 14:29 | 6.75066 | 95.98755 | 35849 ft | 410 kts | 297° |
| 2026-05-07 14:29 | 6.77558 | 95.93668 | 35851 ft | 406 kts | 297° |
| 2026-05-07 14:30 | 6.80044 | 95.88594 | 35849 ft | 402 kts | 297° |
| 2026-05-07 14:30 | 6.82504 | 95.83570 | 35851 ft | 398 kts | 297° |
| 2026-05-07 14:31 | 6.84937 | 95.78602 | 35847 ft | 394 kts | 297° |
| 2026-05-07 14:31 | 6.87345 | 95.73681 | 35852 ft | 389 kts | 297° |
| 2026-05-07 14:32 | 6.89705 | 95.68857 | 35853 ft | 384 kts | 297° |
| 2026-05-07 14:32 | 6.92052 | 95.64059 | 35853 ft | 379 kts | 297° |
| 2026-05-07 14:33 | 6.94364 | 95.59331 | 35852 ft | 373 kts | 297° |
| 2026-05-07 14:33 | 6.96636 | 95.54682 | 35851 ft | 367 kts | 297° |
| 2026-05-07 14:34 | 6.98868 | 95.50114 | 35853 ft | 360 kts | 297° |
| 2026-05-07 14:34 | 7.01051 | 95.45644 | 35852 ft | 352 kts | 297° |
| 2026-05-07 14:35 | 7.03165 | 95.41314 | 35850 ft | 342 kts | 297° |
| 2026-05-07 14:35 | 7.05259 | 95.37070 | 35612 ft | 340 kts | 299° |
| 2026-05-07 14:35 | 7.06336 | 95.34987 | 35352 ft | 343 kts | 300° |
| 2026-05-07 14:36 | 7.07453 | 95.32785 | 34820 ft | 367 kts | 296° |
| 2026-05-07 14:36 | 7.08597 | 95.30383 | 34251 ft | 395 kts | 296° |
| 2026-05-07 14:36 | 7.09823 | 95.27801 | 33840 ft | 419 kts | 296° |
| 2026-05-07 14:36 | 7.11110 | 95.25120 | 33731 ft | 432 kts | 296° |
| 2026-05-07 14:37 | 7.12436 | 95.22380 | 33944 ft | 437 kts | 297° |
| 2026-05-07 14:37 | 7.15092 | 95.16922 | 34976 ft | 427 kts | 297° |
| 2026-05-07 14:37 | 7.16370 | 95.14302 | 35522 ft | 420 kts | 297° |
| 2026-05-07 14:38 | 7.17661 | 95.11654 | 35784 ft | 423 kts | 297° |
| 2026-05-07 14:38 | 7.18964 | 95.08981 | 35858 ft | 430 kts | 297° |
| 2026-05-07 14:38 | 7.21657 | 95.03457 | 35859 ft | 448 kts | 297° |
| 2026-05-07 14:39 | 7.24458 | 94.97707 | 35860 ft | 467 kts | 297° |
| 2026-05-07 14:39 | 7.27351 | 94.91764 | 35859 ft | 484 kts | 297° |
| 2026-05-07 14:40 | 7.30366 | 94.85568 | 35859 ft | 501 kts | 297° |
| 2026-05-07 14:40 | 7.33490 | 94.79146 | 35857 ft | 519 kts | 297° |
| 2026-05-07 14:41 | 7.36650 | 94.72645 | 35855 ft | 514 kts | 297° |
| 2026-05-07 14:41 | 7.39804 | 94.66157 | 35856 ft | 516 kts | 297° |
| 2026-05-07 14:42 | 7.42937 | 94.59707 | 35855 ft | 516 kts | 297° |
| 2026-05-07 14:42 | 7.46086 | 94.53221 | 35857 ft | 515 kts | 297° |
| 2026-05-07 14:43 | 7.49232 | 94.46738 | 35852 ft | 515 kts | 297° |
| 2026-05-07 14:43 | 7.51845 | 94.41354 | 35851 ft | 514 kts | 297° |
| 2026-05-07 14:44 | 7.54823 | 94.34799 | 35846 ft | 514 kts | 294° |
| 2026-05-07 14:44 | 7.58185 | 94.27152 | 35838 ft | 513 kts | 295° |
| 2026-05-07 14:45 | 7.60633 | 94.21644 | 35840 ft | 513 kts | 295° |
| 2026-05-07 14:45 | 7.63539 | 94.15126 | 35845 ft | 514 kts | 295° |
| 2026-05-07 14:46 | 7.66469 | 94.08557 | 35845 ft | 514 kts | 295° |
| 2026-05-07 14:46 | 7.69399 | 94.01982 | 35850 ft | 514 kts | 295° |
| 2026-05-07 14:47 | 7.72330 | 93.95401 | 35857 ft | 515 kts | 295° |
| 2026-05-07 14:47 | 7.75263 | 93.88813 | 35857 ft | 515 kts | 295° |
| 2026-05-07 14:48 | 7.78177 | 93.82264 | 35862 ft | 515 kts | 295° |
| 2026-05-07 14:48 | 7.81108 | 93.75675 | 35860 ft | 516 kts | 295° |
| 2026-05-07 14:49 | 7.84042 | 93.69075 | 35861 ft | 516 kts | 295° |
| 2026-05-07 14:49 | 7.86975 | 93.62475 | 35861 ft | 516 kts | 295° |
| 2026-05-07 14:50 | 7.89891 | 93.55910 | 35856 ft | 516 kts | 295° |
| 2026-05-07 14:50 | 7.92819 | 93.49314 | 35858 ft | 516 kts | 295° |
| 2026-05-07 14:51 | 7.95772 | 93.42704 | 35855 ft | 516 kts | 295° |
| 2026-05-07 14:51 | 7.98734 | 93.36097 | 35857 ft | 517 kts | 295° |
| 2026-05-07 14:52 | 8.01690 | 93.29489 | 35858 ft | 517 kts | 295° |
| 2026-05-07 14:52 | 8.04629 | 93.22915 | 35860 ft | 517 kts | 295° |
| 2026-05-07 14:53 | 8.07584 | 93.16300 | 35861 ft | 517 kts | 295° |
| 2026-05-07 14:53 | 8.10540 | 93.09679 | 35860 ft | 517 kts | 295° |
| 2026-05-07 14:54 | 8.13494 | 93.03060 | 35859 ft | 517 kts | 295° |
| 2026-05-07 14:54 | 8.16447 | 92.96441 | 35858 ft | 517 kts | 295° |
| 2026-05-07 14:55 | 8.19379 | 92.89864 | 35860 ft | 517 kts | 295° |
| 2026-05-07 14:55 | 8.22331 | 92.83241 | 35859 ft | 517 kts | 295° |
| 2026-05-07 14:56 | 8.25280 | 92.76619 | 35861 ft | 517 kts | 295° |
| 2026-05-07 14:56 | 8.28227 | 92.69998 | 35860 ft | 517 kts | 295° |
| 2026-05-07 14:57 | 8.31170 | 92.63385 | 35860 ft | 516 kts | 295° |
| 2026-05-07 14:57 | 8.34093 | 92.56811 | 35859 ft | 516 kts | 295° |
| 2026-05-07 14:58 | 8.37032 | 92.50198 | 35858 ft | 516 kts | 295° |
| 2026-05-07 14:58 | 8.39970 | 92.43585 | 35857 ft | 516 kts | 295° |
| 2026-05-07 14:59 | 8.42902 | 92.36979 | 35860 ft | 516 kts | 295° |
| 2026-05-07 14:59 | 8.45833 | 92.30375 | 35857 ft | 515 kts | 295° |
| 2026-05-07 15:00 | 8.48745 | 92.23810 | 35864 ft | 515 kts | 295° |
| 2026-05-07 15:00 | 8.51671 | 92.17208 | 35861 ft | 515 kts | 295° |
| 2026-05-07 15:01 | 8.54597 | 92.10604 | 35854 ft | 514 kts | 295° |
| 2026-05-07 15:01 | 8.57516 | 92.04014 | 35859 ft | 514 kts | 295° |
| 2026-05-07 15:02 | 8.60429 | 91.97467 | 35867 ft | 514 kts | 296° |
| 2026-05-07 15:02 | 8.63516 | 91.90950 | 35863 ft | 514 kts | 297° |
| 2026-05-07 15:03 | 8.66615 | 91.84438 | 35864 ft | 514 kts | 296° |
| 2026-05-07 15:03 | 8.69694 | 91.77916 | 35862 ft | 514 kts | 296° |
| 2026-05-07 15:04 | 8.72767 | 91.71391 | 35864 ft | 514 kts | 296° |
| 2026-05-07 15:04 | 8.75810 | 91.64926 | 35864 ft | 514 kts | 296° |
| 2026-05-07 15:05 | 8.78055 | 91.60151 | 35865 ft | 500 kts | 296° |
| 2026-05-07 15:05 | 8.81087 | 91.53703 | 35865 ft | 515 kts | 296° |
| 2026-05-07 15:06 | 8.84158 | 91.47170 | 35868 ft | 514 kts | 296° |
| 2026-05-07 15:06 | 8.87205 | 91.40681 | 35864 ft | 514 kts | 296° |
| 2026-05-07 15:07 | 8.90272 | 91.34149 | 35866 ft | 514 kts | 296° |
| 2026-05-07 15:07 | 8.93334 | 91.27622 | 35866 ft | 514 kts | 296° |
| 2026-05-07 15:08 | 8.96398 | 91.21088 | 35861 ft | 513 kts | 296° |
| 2026-05-07 15:08 | 8.99454 | 91.14568 | 35857 ft | 513 kts | 296° |
| 2026-05-07 15:09 | 9.02489 | 91.08088 | 35854 ft | 513 kts | 296° |
| 2026-05-07 15:09 | 9.05548 | 91.01554 | 35856 ft | 514 kts | 296° |
| 2026-05-07 15:10 | 9.08608 | 90.95014 | 35857 ft | 515 kts | 296° |
| 2026-05-07 15:10 | 9.11676 | 90.88455 | 35861 ft | 516 kts | 296° |
| 2026-05-07 15:11 | 9.14721 | 90.81938 | 35866 ft | 516 kts | 296° |
| 2026-05-07 15:11 | 9.17793 | 90.75363 | 35872 ft | 517 kts | 296° |
| 2026-05-07 15:12 | 9.20865 | 90.68784 | 35874 ft | 517 kts | 296° |
| 2026-05-07 15:12 | 9.23935 | 90.62203 | 35876 ft | 517 kts | 296° |
| 2026-05-07 15:13 | 9.26978 | 90.55679 | 35875 ft | 517 kts | 296° |
| 2026-05-07 15:13 | 9.30047 | 90.49095 | 35873 ft | 516 kts | 296° |
| 2026-05-07 15:14 | 9.33108 | 90.42523 | 35872 ft | 516 kts | 296° |
| 2026-05-07 15:14 | 9.36162 | 90.35962 | 35873 ft | 515 kts | 296° |
| 2026-05-07 15:15 | 9.39217 | 90.29397 | 35866 ft | 515 kts | 296° |
| 2026-05-07 15:15 | 9.42240 | 90.22896 | 35866 ft | 514 kts | 296° |
| 2026-05-07 15:16 | 9.45288 | 90.16337 | 35863 ft | 514 kts | 296° |
| 2026-05-07 15:16 | 9.48332 | 90.09785 | 35865 ft | 514 kts | 296° |
| 2026-05-07 15:17 | 9.51374 | 90.03231 | 35864 ft | 514 kts | 296° |
| 2026-05-07 15:17 | 9.54393 | 89.96724 | 35867 ft | 514 kts | 296° |
| 2026-05-07 15:18 | 9.57432 | 89.90169 | 35864 ft | 514 kts | 296° |
| 2026-05-07 15:18 | 9.60467 | 89.83620 | 35864 ft | 513 kts | 295° |
| 2026-05-07 15:19 | 9.63499 | 89.77074 | 35869 ft | 513 kts | 295° |
| 2026-05-07 15:19 | 9.66507 | 89.70574 | 35867 ft | 513 kts | 295° |
| 2026-05-07 15:20 | 9.69537 | 89.64025 | 35866 ft | 513 kts | 295° |
| 2026-05-07 15:20 | 9.72561 | 89.57484 | 35863 ft | 512 kts | 295° |
| 2026-05-07 15:21 | 9.75583 | 89.50942 | 35863 ft | 512 kts | 295° |
| 2026-05-07 15:21 | 9.78605 | 89.44398 | 35858 ft | 512 kts | 295° |
| 2026-05-07 15:22 | 9.81605 | 89.37898 | 35860 ft | 513 kts | 295° |
| 2026-05-07 15:22 | 9.84623 | 89.31354 | 35860 ft | 513 kts | 295° |
| 2026-05-07 15:23 | 9.87581 | 89.24936 | 35468 ft | 501 kts | 295° |
| 2026-05-07 15:23 | 9.89060 | 89.21726 | 35217 ft | 506 kts | 295° |
| 2026-05-07 15:23 | 9.90562 | 89.18466 | 35229 ft | 515 kts | 295° |
| 2026-05-07 15:24 | 9.92079 | 89.15171 | 35487 ft | 516 kts | 295° |
| 2026-05-07 15:24 | 9.93578 | 89.11915 | 35931 ft | 515 kts | 295° |
| 2026-05-07 15:24 | 9.95091 | 89.08627 | 36374 ft | 513 kts | 295° |
| 2026-05-07 15:24 | 9.96597 | 89.05355 | 36841 ft | 512 kts | 295° |
| 2026-05-07 15:25 | 9.98097 | 89.02091 | 37318 ft | 510 kts | 295° |
| 2026-05-07 15:25 | 9.99596 | 88.98832 | 37754 ft | 509 kts | 295° |
| 2026-05-07 15:25 | 10.01099 | 88.95563 | 37866 ft | 513 kts | 295° |
| 2026-05-07 15:25 | 10.02595 | 88.92306 | 37867 ft | 507 kts | 295° |
| 2026-05-07 15:26 | 10.05569 | 88.85831 | 37865 ft | 507 kts | 295° |
| 2026-05-07 15:26 | 10.08527 | 88.79387 | 37868 ft | 508 kts | 295° |
| 2026-05-07 15:27 | 10.11511 | 88.72881 | 37864 ft | 508 kts | 295° |
| 2026-05-07 15:27 | 10.14494 | 88.66376 | 37871 ft | 508 kts | 295° |
| 2026-05-07 15:28 | 10.17453 | 88.59919 | 37869 ft | 508 kts | 295° |
| 2026-05-07 15:28 | 10.20430 | 88.53420 | 37871 ft | 508 kts | 295° |
| 2026-05-07 15:29 | 10.23572 | 88.46999 | 37871 ft | 508 kts | 298° |
| 2026-05-07 15:29 | 10.26841 | 88.40647 | 37868 ft | 507 kts | 298° |
| 2026-05-07 15:30 | 10.30077 | 88.34283 | 37866 ft | 507 kts | 298° |
| 2026-05-07 15:30 | 10.33273 | 88.27955 | 37871 ft | 507 kts | 298° |
| 2026-05-07 15:31 | 10.36482 | 88.21593 | 37865 ft | 506 kts | 298° |
| 2026-05-07 15:31 | 10.39695 | 88.15219 | 37866 ft | 506 kts | 298° |
| 2026-05-07 15:32 | 10.42899 | 88.08859 | 37868 ft | 506 kts | 298° |
| 2026-05-07 15:32 | 10.46102 | 88.02495 | 37868 ft | 505 kts | 298° |
| 2026-05-07 15:33 | 10.49278 | 87.96185 | 37867 ft | 505 kts | 298° |
| 2026-05-07 15:33 | 10.52476 | 87.89824 | 37863 ft | 505 kts | 297° |
| 2026-05-07 15:34 | 10.55671 | 87.83465 | 37864 ft | 505 kts | 297° |
| 2026-05-07 15:34 | 10.58844 | 87.77148 | 37865 ft | 505 kts | 297° |
| 2026-05-07 15:35 | 10.62039 | 87.70783 | 37860 ft | 505 kts | 297° |
| 2026-05-07 15:35 | 10.65229 | 87.64422 | 37863 ft | 506 kts | 297° |
| 2026-05-07 15:36 | 10.68425 | 87.58047 | 37863 ft | 506 kts | 297° |
| 2026-05-07 15:36 | 10.71617 | 87.51675 | 37869 ft | 506 kts | 297° |
| 2026-05-07 15:37 | 10.74792 | 87.45335 | 37865 ft | 507 kts | 297° |
| 2026-05-07 15:37 | 10.77987 | 87.38949 | 37868 ft | 507 kts | 297° |
| 2026-05-07 15:38 | 10.81185 | 87.32555 | 37871 ft | 507 kts | 297° |
| 2026-05-07 15:38 | 10.84380 | 87.26161 | 37870 ft | 507 kts | 297° |
| 2026-05-07 15:39 | 10.87579 | 87.19756 | 37868 ft | 508 kts | 297° |
| 2026-05-07 15:39 | 10.90756 | 87.13392 | 37872 ft | 508 kts | 297° |
| 2026-05-07 15:40 | 10.93957 | 87.06974 | 37870 ft | 509 kts | 297° |
| 2026-05-07 15:40 | 10.97162 | 87.00545 | 37869 ft | 510 kts | 297° |
| 2026-05-07 15:41 | 11.00369 | 86.94107 | 37872 ft | 510 kts | 297° |
| 2026-05-07 15:41 | 11.03552 | 86.87715 | 37879 ft | 510 kts | 297° |
| 2026-05-07 15:42 | 11.06756 | 86.81273 | 37873 ft | 510 kts | 297° |
| 2026-05-07 15:42 | 11.09959 | 86.74833 | 37872 ft | 510 kts | 297° |
| 2026-05-07 15:43 | 11.13160 | 86.68391 | 37875 ft | 509 kts | 297° |
| 2026-05-07 15:43 | 11.16358 | 86.61952 | 37870 ft | 509 kts | 297° |
| 2026-05-07 15:44 | 11.19529 | 86.55561 | 37870 ft | 509 kts | 297° |
| 2026-05-07 15:44 | 11.22719 | 86.49128 | 37862 ft | 509 kts | 297° |
| 2026-05-07 15:45 | 11.25909 | 86.42691 | 37867 ft | 509 kts | 297° |
| 2026-05-07 15:45 | 11.29096 | 86.36257 | 37859 ft | 509 kts | 297° |
| 2026-05-07 15:46 | 11.33859 | 86.26633 | 37867 ft | 510 kts | 297° |
| 2026-05-07 15:47 | 11.37049 | 86.20182 | 37865 ft | 510 kts | 297° |
| 2026-05-07 15:47 | 11.40241 | 86.13722 | 37870 ft | 511 kts | 297° |
| 2026-05-07 15:48 | 11.43435 | 86.07254 | 37870 ft | 511 kts | 297° |
| 2026-05-07 15:48 | 11.46608 | 86.00823 | 37875 ft | 511 kts | 297° |
| 2026-05-07 15:49 | 11.49801 | 85.94350 | 37876 ft | 511 kts | 297° |
| 2026-05-07 15:49 | 11.52991 | 85.87876 | 37877 ft | 511 kts | 297° |
| 2026-05-07 15:50 | 11.56182 | 85.81397 | 37872 ft | 511 kts | 297° |
| 2026-05-07 15:50 | 11.59371 | 85.74917 | 37872 ft | 511 kts | 297° |
| 2026-05-07 15:51 | 11.62538 | 85.68477 | 37871 ft | 511 kts | 297° |
| 2026-05-07 15:51 | 11.65723 | 85.61996 | 37873 ft | 511 kts | 296° |
| 2026-05-07 15:52 | 11.68905 | 85.55519 | 37874 ft | 511 kts | 296° |
| 2026-05-07 15:52 | 11.72082 | 85.49047 | 37873 ft | 510 kts | 296° |
| 2026-05-07 15:53 | 11.75256 | 85.42575 | 37878 ft | 509 kts | 296° |
| 2026-05-07 15:53 | 11.78400 | 85.36160 | 37874 ft | 509 kts | 296° |
| 2026-05-07 15:54 | 11.81564 | 85.29701 | 37868 ft | 508 kts | 296° |
| 2026-05-07 15:54 | 11.84721 | 85.23250 | 37869 ft | 508 kts | 296° |
| 2026-05-07 15:55 | 11.87878 | 85.16795 | 37872 ft | 507 kts | 296° |
| 2026-05-07 15:55 | 11.90983 | 85.10444 | 37868 ft | 487 kts | 296° |
| 2026-05-07 15:55 | 11.92454 | 85.07434 | 37875 ft | 473 kts | 296° |
| 2026-05-07 15:56 | 11.93902 | 85.04470 | 37870 ft | 460 kts | 296° |
| 2026-05-07 15:56 | 11.95311 | 85.01583 | 37866 ft | 447 kts | 296° |
| 2026-05-07 15:56 | 11.96679 | 84.98780 | 37870 ft | 435 kts | 296° |
| 2026-05-07 15:56 | 11.98010 | 84.96053 | 37865 ft | 422 kts | 296° |
| 2026-05-07 15:57 | 11.99300 | 84.93406 | 37868 ft | 410 kts | 296° |
| 2026-05-07 15:57 | 12.00552 | 84.90839 | 37869 ft | 398 kts | 296° |
| 2026-05-07 15:57 | 12.01766 | 84.88349 | 37865 ft | 386 kts | 296° |
| 2026-05-07 15:57 | 12.02928 | 84.85964 | 37869 ft | 373 kts | 296° |
| 2026-05-07 15:58 | 12.04064 | 84.83632 | 37863 ft | 360 kts | 296° |
| 2026-05-07 15:58 | 12.05157 | 84.81386 | 37861 ft | 346 kts | 296° |
| 2026-05-07 15:58 | 12.06206 | 84.79232 | 37821 ft | 334 kts | 298° |
| 2026-05-07 15:58 | 12.07263 | 84.77122 | 37313 ft | 336 kts | 299° |
| 2026-05-07 15:59 | 12.08375 | 84.74988 | 36639 ft | 344 kts | 300° |
| 2026-05-07 15:59 | 12.09536 | 84.72847 | 36204 ft | 344 kts | 301° |
| 2026-05-07 15:59 | 12.10721 | 84.70744 | 35963 ft | 338 kts | 302° |
| 2026-05-07 15:59 | 12.11912 | 84.68703 | 35741 ft | 331 kts | 303° |
| 2026-05-07 16:00 | 12.13116 | 84.66711 | 35407 ft | 329 kts | 304° |
| 2026-05-07 16:00 | 12.14334 | 84.64766 | 35016 ft | 330 kts | 305° |
| 2026-05-07 16:00 | 12.15599 | 84.62815 | 34642 ft | 329 kts | 306° |
| 2026-05-07 16:00 | 12.16890 | 84.60895 | 34339 ft | 326 kts | 307° |
| 2026-05-07 16:01 | 12.18199 | 84.59015 | 34061 ft | 323 kts | 307° |
| 2026-05-07 16:01 | 12.19529 | 84.57169 | 33747 ft | 321 kts | 308° |
| 2026-05-07 16:01 | 12.20877 | 84.55361 | 33371 ft | 320 kts | 309° |
| 2026-05-07 16:01 | 12.22252 | 84.53581 | 33004 ft | 318 kts | 310° |
| 2026-05-07 16:02 | 12.23646 | 84.51836 | 32688 ft | 316 kts | 311° |
| 2026-05-07 16:02 | 12.25041 | 84.50148 | 32368 ft | 314 kts | 312° |
| 2026-05-07 16:02 | 12.26472 | 84.48473 | 32042 ft | 312 kts | 313° |
| 2026-05-07 16:02 | 12.27921 | 84.46833 | 31715 ft | 310 kts | 314° |
| 2026-05-07 16:03 | 12.29390 | 84.45228 | 31393 ft | 308 kts | 315° |
| 2026-05-07 16:03 | 12.30877 | 84.43656 | 31098 ft | 307 kts | 316° |
| 2026-05-07 16:03 | 12.32385 | 84.42117 | 30799 ft | 305 kts | 317° |
| 2026-05-07 16:03 | 12.33907 | 84.40616 | 30489 ft | 303 kts | 318° |
| 2026-05-07 16:04 | 12.35446 | 84.39150 | 30194 ft | 302 kts | 319° |
| 2026-05-07 16:04 | 12.37001 | 84.37720 | 29910 ft | 300 kts | 320° |
| 2026-05-07 16:04 | 12.38555 | 84.36339 | 29578 ft | 299 kts | 321° |
| 2026-05-07 16:04 | 12.40141 | 84.34980 | 29255 ft | 297 kts | 322° |
| 2026-05-07 16:05 | 12.41740 | 84.33659 | 28939 ft | 295 kts | 323° |
| 2026-05-07 16:05 | 12.43355 | 84.32372 | 28611 ft | 293 kts | 323° |
| 2026-05-07 16:05 | 12.44980 | 84.31124 | 28307 ft | 291 kts | 324° |
| 2026-05-07 16:05 | 12.46616 | 84.29915 | 28001 ft | 290 kts | 326° |
| 2026-05-07 16:06 | 12.48267 | 84.28741 | 27682 ft | 288 kts | 327° |
| 2026-05-07 16:06 | 12.49930 | 84.27603 | 27374 ft | 287 kts | 328° |
| 2026-05-07 16:06 | 12.51606 | 84.26502 | 27073 ft | 285 kts | 329° |
| 2026-05-07 16:06 | 12.53292 | 84.25438 | 26781 ft | 284 kts | 330° |
| 2026-05-07 16:07 | 12.54931 | 84.24445 | 26505 ft | 282 kts | 330° |
| 2026-05-07 16:07 | 12.56493 | 84.23161 | 25896 ft | 303 kts | 305° |
| 2026-05-07 16:07 | 12.57396 | 84.21197 | 25929 ft | 305 kts | 279° |
| 2026-05-07 16:07 | 12.57388 | 84.19116 | 26591 ft | 284 kts | 254° |
| 2026-05-07 16:08 | 12.56596 | 84.17339 | 27110 ft | 272 kts | 230° |
| 2026-05-07 16:08 | 12.55188 | 84.16058 | 27263 ft | 273 kts | 214° |
| 2026-05-07 16:08 | 12.53581 | 84.14996 | 27236 ft | 280 kts | 216° |
| 2026-05-07 16:08 | 12.52217 | 84.13479 | 26293 ft | 305 kts | 240° |
| 2026-05-07 16:09 | 12.51321 | 84.11430 | 25621 ft | 321 kts | 248° |
| 2026-05-07 16:09 | 12.50579 | 84.09305 | 25319 ft | 323 kts | 249° |
| 2026-05-07 16:09 | 12.49838 | 84.07098 | 25300 ft | 333 kts | 250° |
| 2026-05-07 16:09 | 12.49085 | 84.04838 | 25612 ft | 335 kts | 250° |
| 2026-05-07 16:10 | 12.48343 | 84.02605 | 26169 ft | 328 kts | 250° |
| 2026-05-07 16:10 | 12.47620 | 84.00419 | 26746 ft | 321 kts | 251° |
| 2026-05-07 16:10 | 12.47136 | 83.98184 | 27089 ft | 324 kts | 265° |
| 2026-05-07 16:10 | 12.47243 | 83.95871 | 27369 ft | 329 kts | 279° |
| 2026-05-07 16:11 | 12.47849 | 83.93607 | 27679 ft | 333 kts | 289° |
| 2026-05-07 16:11 | 12.48722 | 83.91441 | 27986 ft | 335 kts | 293° |
| 2026-05-07 16:11 | 12.49734 | 83.89277 | 28319 ft | 338 kts | 295° |
| 2026-05-07 16:11 | 12.50788 | 83.87122 | 28639 ft | 340 kts | 295° |
| 2026-05-07 16:12 | 12.51852 | 83.84955 | 28950 ft | 342 kts | 295° |
| 2026-05-07 16:12 | 12.52921 | 83.82765 | 29292 ft | 344 kts | 295° |
| 2026-05-07 16:12 | 12.53989 | 83.80560 | 29608 ft | 347 kts | 295° |
| 2026-05-07 16:12 | 12.55061 | 83.78340 | 29946 ft | 349 kts | 295° |
| 2026-05-07 16:13 | 12.56139 | 83.76102 | 30231 ft | 352 kts | 295° |
| 2026-05-07 16:13 | 12.57210 | 83.73878 | 30528 ft | 354 kts | 295° |
| 2026-05-07 16:13 | 12.58300 | 83.71612 | 30843 ft | 356 kts | 295° |
| 2026-05-07 16:13 | 12.59400 | 83.69327 | 31136 ft | 359 kts | 295° |
| 2026-05-07 16:14 | 12.60509 | 83.67021 | 31448 ft | 362 kts | 295° |
| 2026-05-07 16:14 | 12.61627 | 83.64697 | 31769 ft | 365 kts | 295° |
| 2026-05-07 16:14 | 12.62750 | 83.62362 | 32086 ft | 367 kts | 295° |
| 2026-05-07 16:14 | 12.63883 | 83.60005 | 32378 ft | 371 kts | 295° |
| 2026-05-07 16:15 | 12.65026 | 83.57627 | 32698 ft | 373 kts | 295° |
| 2026-05-07 16:15 | 12.66158 | 83.55272 | 32974 ft | 376 kts | 295° |
| 2026-05-07 16:15 | 12.67335 | 83.52870 | 33293 ft | 378 kts | 296° |
| 2026-05-07 16:15 | 12.68542 | 83.50465 | 33592 ft | 381 kts | 296° |
| 2026-05-07 16:16 | 12.69763 | 83.48039 | 33862 ft | 384 kts | 296° |
| 2026-05-07 16:16 | 12.70988 | 83.45600 | 34147 ft | 386 kts | 296° |
| 2026-05-07 16:16 | 12.72219 | 83.43141 | 34409 ft | 389 kts | 296° |
| 2026-05-07 16:16 | 12.73453 | 83.40673 | 34657 ft | 391 kts | 296° |
| 2026-05-07 16:17 | 12.74696 | 83.38183 | 34908 ft | 394 kts | 296° |
| 2026-05-07 16:17 | 12.75931 | 83.35708 | 35148 ft | 396 kts | 296° |
| 2026-05-07 16:17 | 12.77189 | 83.33186 | 35401 ft | 399 kts | 296° |
| 2026-05-07 16:17 | 12.78452 | 83.30653 | 35649 ft | 401 kts | 296° |
| 2026-05-07 16:18 | 12.79723 | 83.28103 | 35901 ft | 404 kts | 296° |
| 2026-05-07 16:18 | 12.81003 | 83.25534 | 36129 ft | 406 kts | 296° |
| 2026-05-07 16:18 | 12.82291 | 83.22948 | 36375 ft | 409 kts | 296° |
| 2026-05-07 16:18 | 12.83587 | 83.20345 | 36624 ft | 411 kts | 296° |
| 2026-05-07 16:19 | 12.84891 | 83.17727 | 36855 ft | 414 kts | 296° |
| 2026-05-07 16:19 | 12.86205 | 83.15086 | 37091 ft | 416 kts | 296° |
| 2026-05-07 16:19 | 12.87520 | 83.12443 | 37348 ft | 418 kts | 296° |
| 2026-05-07 16:19 | 12.88828 | 83.09814 | 37574 ft | 421 kts | 296° |
| 2026-05-07 16:20 | 12.90159 | 83.07138 | 37803 ft | 423 kts | 296° |
| 2026-05-07 16:20 | 12.92877 | 83.01667 | 37873 ft | 438 kts | 296° |
| 2026-05-07 16:21 | 12.95696 | 82.95992 | 37873 ft | 455 kts | 296° |
| 2026-05-07 16:21 | 12.98616 | 82.90109 | 37871 ft | 471 kts | 296° |
| 2026-05-07 16:22 | 13.01617 | 82.84057 | 37875 ft | 487 kts | 296° |
| 2026-05-07 16:22 | 13.04742 | 82.77753 | 37871 ft | 504 kts | 296° |
| 2026-05-07 16:23 | 13.07917 | 82.71346 | 37869 ft | 501 kts | 296° |
| 2026-05-07 16:23 | 13.11075 | 82.64966 | 37870 ft | 503 kts | 296° |
| 2026-05-07 16:24 | 13.14219 | 82.58608 | 37867 ft | 503 kts | 296° |
| 2026-05-07 16:24 | 13.17379 | 82.52214 | 37873 ft | 503 kts | 296° |
| 2026-05-07 16:25 | 13.20540 | 82.45812 | 37871 ft | 503 kts | 296° |
| 2026-05-07 16:25 | 13.23701 | 82.39405 | 37871 ft | 502 kts | 296° |
| 2026-05-07 16:26 | 13.26822 | 82.33076 | 37872 ft | 499 kts | 296° |
| 2026-05-07 16:26 | 13.29955 | 82.26716 | 37867 ft | 500 kts | 296° |
| 2026-05-07 16:27 | 13.33095 | 82.20338 | 37868 ft | 500 kts | 295° |
| 2026-05-07 16:27 | 13.36230 | 82.13964 | 37869 ft | 501 kts | 295° |
| 2026-05-07 16:28 | 13.39360 | 82.07597 | 37867 ft | 500 kts | 295° |
| 2026-05-07 16:28 | 13.42477 | 82.01251 | 37867 ft | 500 kts | 295° |
| 2026-05-07 16:29 | 13.45607 | 81.94872 | 37870 ft | 500 kts | 295° |
| 2026-05-07 16:29 | 13.48735 | 81.88494 | 37868 ft | 500 kts | 295° |
| 2026-05-07 16:30 | 13.51863 | 81.82110 | 37871 ft | 501 kts | 295° |
| 2026-05-07 16:30 | 13.54971 | 81.75762 | 37869 ft | 500 kts | 295° |
| 2026-05-07 16:31 | 13.58095 | 81.69378 | 37871 ft | 501 kts | 295° |
| 2026-05-07 16:31 | 13.61226 | 81.62971 | 37874 ft | 501 kts | 295° |
| 2026-05-07 16:32 | 13.64356 | 81.56566 | 37878 ft | 501 kts | 295° |
| 2026-05-07 16:32 | 13.67484 | 81.50157 | 37875 ft | 501 kts | 295° |
| 2026-05-07 16:33 | 13.70589 | 81.43795 | 37877 ft | 501 kts | 295° |
| 2026-05-07 16:33 | 13.73718 | 81.37392 | 37876 ft | 501 kts | 295° |
| 2026-05-07 16:34 | 13.76848 | 81.30988 | 37877 ft | 501 kts | 295° |
| 2026-05-07 16:34 | 13.79977 | 81.24581 | 37878 ft | 501 kts | 295° |
| 2026-05-07 16:35 | 13.83079 | 81.18223 | 37879 ft | 501 kts | 295° |
| 2026-05-07 16:35 | 13.86206 | 81.11809 | 37879 ft | 501 kts | 295° |
| 2026-05-07 16:36 | 13.89326 | 81.05402 | 37882 ft | 501 kts | 295° |
| 2026-05-07 16:36 | 13.92434 | 80.99018 | 37880 ft | 501 kts | 295° |
| 2026-05-07 16:37 | 13.95552 | 80.92607 | 37878 ft | 501 kts | 295° |
| 2026-05-07 16:37 | 13.98672 | 80.86184 | 37876 ft | 501 kts | 295° |
| 2026-05-07 16:38 | 14.01814 | 80.79772 | 37873 ft | 502 kts | 296° |
| 2026-05-07 16:38 | 14.05048 | 80.73411 | 37873 ft | 502 kts | 296° |
| 2026-05-07 16:39 | 14.08258 | 80.67087 | 37875 ft | 501 kts | 296° |
| 2026-05-07 16:39 | 14.11477 | 80.60714 | 37871 ft | 501 kts | 296° |
| 2026-05-07 16:40 | 14.14684 | 80.54352 | 37871 ft | 501 kts | 296° |
| 2026-05-07 16:40 | 14.17892 | 80.47983 | 37873 ft | 501 kts | 296° |
| 2026-05-07 16:41 | 14.21084 | 80.41641 | 37871 ft | 501 kts | 296° |
| 2026-05-07 16:41 | 14.24284 | 80.35279 | 37872 ft | 500 kts | 296° |
| 2026-05-07 16:42 | 14.27477 | 80.28924 | 37873 ft | 500 kts | 296° |
| 2026-05-07 16:42 | 14.30683 | 80.22538 | 37873 ft | 500 kts | 296° |
| 2026-05-07 16:43 | 14.33857 | 80.16212 | 37872 ft | 500 kts | 296° |
| 2026-05-07 16:43 | 14.37046 | 80.09850 | 37874 ft | 500 kts | 296° |
| 2026-05-07 16:44 | 14.40238 | 80.03476 | 37875 ft | 500 kts | 296° |
| 2026-05-07 16:44 | 14.43421 | 79.97115 | 37877 ft | 499 kts | 296° |
| 2026-05-07 16:45 | 14.46586 | 79.90786 | 37880 ft | 499 kts | 296° |
| 2026-05-07 16:45 | 14.49765 | 79.84423 | 37880 ft | 499 kts | 296° |
| 2026-05-07 16:46 | 14.52945 | 79.78054 | 37883 ft | 499 kts | 296° |
| 2026-05-07 16:46 | 14.56116 | 79.71696 | 37883 ft | 498 kts | 296° |
| 2026-05-07 16:47 | 14.59265 | 79.65378 | 37889 ft | 498 kts | 296° |
| 2026-05-07 16:47 | 14.62432 | 79.59017 | 37891 ft | 498 kts | 296° |
| 2026-05-07 16:48 | 14.65594 | 79.52662 | 37893 ft | 497 kts | 296° |
| 2026-05-07 16:48 | 14.68757 | 79.46301 | 37894 ft | 497 kts | 296° |
| 2026-05-07 16:49 | 14.71903 | 79.39967 | 37899 ft | 499 kts | 296° |
| 2026-05-07 16:49 | 14.75071 | 79.33583 | 37899 ft | 499 kts | 296° |
| 2026-05-07 16:50 | 14.78235 | 79.27203 | 37901 ft | 499 kts | 296° |
| 2026-05-07 16:50 | 14.81400 | 79.20815 | 37909 ft | 499 kts | 296° |
| 2026-05-07 16:51 | 14.84536 | 79.14481 | 37906 ft | 499 kts | 296° |
| 2026-05-07 16:51 | 14.87695 | 79.08095 | 37906 ft | 498 kts | 295° |
| 2026-05-07 16:52 | 14.90849 | 79.01712 | 37913 ft | 498 kts | 295° |
| 2026-05-07 16:52 | 14.93999 | 78.95334 | 37919 ft | 498 kts | 295° |
| 2026-05-07 16:53 | 14.97147 | 78.88953 | 37916 ft | 498 kts | 295° |
| 2026-05-07 16:53 | 15.00268 | 78.82623 | 37920 ft | 498 kts | 295° |
| 2026-05-07 16:54 | 15.03411 | 78.76239 | 37922 ft | 498 kts | 295° |
| 2026-05-07 16:54 | 15.06547 | 78.69869 | 37925 ft | 497 kts | 295° |
| 2026-05-07 16:55 | 15.09683 | 78.63491 | 37924 ft | 497 kts | 295° |
| 2026-05-07 16:55 | 15.12794 | 78.57157 | 37926 ft | 497 kts | 295° |
| 2026-05-07 16:56 | 15.15925 | 78.50778 | 37928 ft | 497 kts | 295° |
| 2026-05-07 16:56 | 15.20610 | 78.41223 | 37931 ft | 496 kts | 295° |
| 2026-05-07 16:57 | 15.23705 | 78.34904 | 37937 ft | 496 kts | 295° |
| 2026-05-07 16:57 | 15.26824 | 78.28529 | 37939 ft | 496 kts | 295° |
| 2026-05-07 16:58 | 15.29935 | 78.22166 | 37946 ft | 495 kts | 295° |
| 2026-05-07 16:58 | 15.33038 | 78.15815 | 37949 ft | 494 kts | 295° |
| 2026-05-07 16:59 | 15.36121 | 78.09502 | 37954 ft | 493 kts | 295° |
| 2026-05-07 16:59 | 15.39182 | 78.03146 | 37953 ft | 492 kts | 295° |
| 2026-05-07 17:00 | 15.42214 | 77.96805 | 37953 ft | 491 kts | 295° |
| 2026-05-07 17:00 | 15.45249 | 77.90470 | 37951 ft | 490 kts | 295° |
| 2026-05-07 17:01 | 15.48268 | 77.84169 | 37945 ft | 491 kts | 295° |
| 2026-05-07 17:01 | 15.51297 | 77.77839 | 37946 ft | 490 kts | 295° |
| 2026-05-07 17:02 | 15.54322 | 77.71513 | 37948 ft | 489 kts | 295° |
| 2026-05-07 17:02 | 15.57343 | 77.65189 | 37944 ft | 490 kts | 295° |
| 2026-05-07 17:03 | 15.60366 | 77.58856 | 37942 ft | 490 kts | 295° |
| 2026-05-07 17:03 | 15.63371 | 77.52556 | 37940 ft | 490 kts | 296° |
| 2026-05-07 17:04 | 15.66389 | 77.46223 | 37939 ft | 490 kts | 296° |
| 2026-05-07 17:04 | 15.69405 | 77.39886 | 37936 ft | 490 kts | 296° |
| 2026-05-07 17:05 | 15.72402 | 77.33588 | 37933 ft | 490 kts | 296° |
| 2026-05-07 17:05 | 15.75437 | 77.27256 | 37938 ft | 490 kts | 296° |
| 2026-05-07 17:06 | 15.78475 | 77.20927 | 37932 ft | 490 kts | 296° |
| 2026-05-07 17:06 | 15.81508 | 77.14595 | 37933 ft | 490 kts | 296° |
| 2026-05-07 17:07 | 15.84537 | 77.08261 | 37936 ft | 490 kts | 296° |
| 2026-05-07 17:07 | 15.87544 | 77.01968 | 37938 ft | 490 kts | 296° |
| 2026-05-07 17:08 | 15.90568 | 76.95635 | 37937 ft | 490 kts | 296° |
| 2026-05-07 17:08 | 15.93595 | 76.89289 | 37935 ft | 489 kts | 296° |
| 2026-05-07 17:09 | 15.96613 | 76.82955 | 37940 ft | 489 kts | 296° |
| 2026-05-07 17:09 | 15.99613 | 76.76656 | 37939 ft | 490 kts | 296° |
| 2026-05-07 17:10 | 16.02632 | 76.70311 | 37945 ft | 490 kts | 296° |
| 2026-05-07 17:10 | 16.05646 | 76.63971 | 37943 ft | 489 kts | 295° |
| 2026-05-07 17:11 | 16.08654 | 76.57639 | 37942 ft | 489 kts | 295° |
| 2026-05-07 17:11 | 16.11639 | 76.51345 | 37948 ft | 488 kts | 295° |
| 2026-05-07 17:12 | 16.14640 | 76.45014 | 37954 ft | 487 kts | 295° |
| 2026-05-07 17:12 | 16.17633 | 76.38694 | 37956 ft | 486 kts | 295° |
| 2026-05-07 17:13 | 16.20617 | 76.32388 | 37957 ft | 486 kts | 295° |
| 2026-05-07 17:13 | 16.23583 | 76.26113 | 37960 ft | 486 kts | 295° |
| 2026-05-07 17:14 | 16.25778 | 76.21469 | 37971 ft | 489 kts | 295° |
| 2026-05-07 17:14 | 16.28770 | 76.15127 | 37975 ft | 486 kts | 295° |
| 2026-05-07 17:15 | 16.31726 | 76.08855 | 37979 ft | 486 kts | 295° |
| 2026-05-07 17:15 | 16.34699 | 76.02544 | 37978 ft | 486 kts | 295° |
| 2026-05-07 17:16 | 16.37666 | 75.96222 | 37980 ft | 486 kts | 295° |
| 2026-05-07 17:16 | 16.40606 | 75.89889 | 37986 ft | 485 kts | 295° |
| 2026-05-07 17:17 | 16.43047 | 75.84630 | 37986 ft | 486 kts | 295° |
| 2026-05-07 17:17 | 16.46465 | 75.77268 | 37985 ft | 486 kts | 295° |
| 2026-05-07 17:18 | 16.49404 | 75.70933 | 37986 ft | 485 kts | 295° |
| 2026-05-07 17:18 | 16.51843 | 75.65670 | 37996 ft | 486 kts | 295° |
| 2026-05-07 17:19 | 16.55257 | 75.58297 | 37992 ft | 486 kts | 295° |
| 2026-05-07 17:19 | 16.58183 | 75.51973 | 37991 ft | 485 kts | 295° |
| 2026-05-07 17:20 | 16.60622 | 75.46695 | 37994 ft | 485 kts | 295° |
| 2026-05-07 17:20 | 16.63702 | 75.40435 | 37993 ft | 485 kts | 297° |
| 2026-05-07 17:21 | 16.66883 | 75.34231 | 37996 ft | 486 kts | 297° |
| 2026-05-07 17:21 | 16.70546 | 75.26991 | 37994 ft | 485 kts | 297° |
| 2026-05-07 17:22 | 16.73154 | 75.21808 | 37995 ft | 486 kts | 297° |
| 2026-05-07 17:22 | 16.76288 | 75.15569 | 37998 ft | 486 kts | 297° |
| 2026-05-07 17:23 | 16.79422 | 75.09327 | 38000 ft | 486 kts | 297° |
| 2026-05-07 17:23 | 16.82557 | 75.03078 | 38001 ft | 486 kts | 297° |
| 2026-05-07 17:24 | 16.85666 | 74.96873 | 37999 ft | 485 kts | 297° |
| 2026-05-07 17:24 | 16.88792 | 74.90630 | 37998 ft | 485 kts | 297° |
| 2026-05-07 17:25 | 16.91919 | 74.84379 | 37998 ft | 485 kts | 296° |
| 2026-05-07 17:25 | 16.95039 | 74.78136 | 38001 ft | 485 kts | 296° |
| 2026-05-07 17:26 | 16.98136 | 74.71933 | 37996 ft | 485 kts | 296° |
| 2026-05-07 17:26 | 17.01253 | 74.65683 | 37997 ft | 485 kts | 296° |
| 2026-05-07 17:27 | 17.04366 | 74.59435 | 38000 ft | 485 kts | 296° |
| 2026-05-07 17:27 | 17.07477 | 74.53188 | 38007 ft | 484 kts | 296° |
| 2026-05-07 17:28 | 17.10587 | 74.46934 | 38006 ft | 484 kts | 296° |
| 2026-05-07 17:28 | 17.13664 | 74.40743 | 38006 ft | 484 kts | 296° |
| 2026-05-07 17:29 | 17.16763 | 74.34501 | 38008 ft | 484 kts | 296° |
| 2026-05-07 17:29 | 17.19864 | 74.28250 | 38015 ft | 484 kts | 296° |
| 2026-05-07 17:30 | 17.22959 | 74.22006 | 38016 ft | 483 kts | 296° |
| 2026-05-07 17:30 | 17.26028 | 74.15812 | 38018 ft | 483 kts | 296° |
| 2026-05-07 17:31 | 17.29108 | 74.09591 | 38015 ft | 482 kts | 296° |
| 2026-05-07 17:31 | 17.32195 | 74.03351 | 38018 ft | 483 kts | 296° |
| 2026-05-07 17:32 | 17.35280 | 73.97109 | 38013 ft | 482 kts | 296° |
| 2026-05-07 17:32 | 17.38341 | 73.90909 | 38011 ft | 483 kts | 296° |
| 2026-05-07 17:33 | 17.41417 | 73.84671 | 38003 ft | 482 kts | 296° |
| 2026-05-07 17:33 | 17.44495 | 73.78425 | 38003 ft | 483 kts | 296° |
| 2026-05-07 17:34 | 17.47571 | 73.72175 | 37997 ft | 482 kts | 296° |
| 2026-05-07 17:34 | 17.50626 | 73.65964 | 37985 ft | 483 kts | 296° |
| 2026-05-07 17:35 | 17.53699 | 73.59709 | 37977 ft | 483 kts | 296° |
| 2026-05-07 17:35 | 17.56772 | 73.53448 | 37973 ft | 483 kts | 296° |
| 2026-05-07 17:36 | 17.59842 | 73.47185 | 37960 ft | 483 kts | 296° |
| 2026-05-07 17:36 | 17.62909 | 73.40925 | 37952 ft | 483 kts | 296° |
| 2026-05-07 17:37 | 17.65955 | 73.34700 | 37948 ft | 482 kts | 296° |
| 2026-05-07 17:37 | 17.69014 | 73.28444 | 37943 ft | 483 kts | 296° |
| 2026-05-07 17:38 | 17.72076 | 73.22174 | 37943 ft | 482 kts | 296° |
| 2026-05-07 17:38 | 17.75126 | 73.15914 | 37933 ft | 482 kts | 296° |
| 2026-05-07 17:39 | 17.78178 | 73.09644 | 37931 ft | 482 kts | 296° |
| 2026-05-07 17:39 | 17.81207 | 73.03424 | 37933 ft | 482 kts | 296° |
| 2026-05-07 17:40 | 17.84251 | 72.97167 | 37927 ft | 481 kts | 296° |
| 2026-05-07 17:40 | 17.87292 | 72.90908 | 37930 ft | 481 kts | 296° |
| 2026-05-07 17:41 | 17.90327 | 72.84652 | 37928 ft | 481 kts | 296° |
| 2026-05-07 17:41 | 17.93341 | 72.78434 | 37931 ft | 481 kts | 296° |
| 2026-05-07 17:42 | 17.96373 | 72.72173 | 37929 ft | 481 kts | 296° |
| 2026-05-07 17:42 | 17.99401 | 72.65914 | 37934 ft | 481 kts | 296° |
| 2026-05-07 17:43 | 18.02426 | 72.59654 | 37932 ft | 480 kts | 296° |
| 2026-05-07 17:43 | 18.05428 | 72.53434 | 37934 ft | 481 kts | 296° |
| 2026-05-07 17:44 | 18.08450 | 72.47169 | 37928 ft | 481 kts | 296° |
| 2026-05-07 17:44 | 18.11469 | 72.40902 | 37928 ft | 480 kts | 296° |
| 2026-05-07 17:45 | 18.14486 | 72.34634 | 37928 ft | 480 kts | 296° |
| 2026-05-07 17:45 | 18.17481 | 72.28406 | 37930 ft | 480 kts | 296° |
| 2026-05-07 17:46 | 18.20494 | 72.22133 | 37930 ft | 480 kts | 296° |
| 2026-05-07 17:46 | 18.23504 | 72.15859 | 37934 ft | 480 kts | 296° |
| 2026-05-07 17:47 | 18.26507 | 72.09595 | 37933 ft | 480 kts | 296° |
| 2026-05-07 17:47 | 18.29512 | 72.03320 | 37936 ft | 480 kts | 296° |
| 2026-05-07 17:48 | 18.32491 | 71.97092 | 37936 ft | 479 kts | 296° |
| 2026-05-07 17:48 | 18.35487 | 71.90822 | 37935 ft | 480 kts | 296° |
| 2026-05-07 17:49 | 18.38486 | 71.84541 | 37943 ft | 480 kts | 296° |
| 2026-05-07 17:49 | 18.41481 | 71.78260 | 37936 ft | 480 kts | 296° |
| 2026-05-07 17:50 | 18.44460 | 71.72008 | 37945 ft | 480 kts | 296° |
| 2026-05-07 17:50 | 18.47454 | 71.65716 | 37940 ft | 481 kts | 296° |
| 2026-05-07 17:51 | 18.50448 | 71.59419 | 37940 ft | 481 kts | 296° |
| 2026-05-07 17:51 | 18.53435 | 71.53128 | 37939 ft | 481 kts | 296° |
| 2026-05-07 17:52 | 18.56426 | 71.46823 | 37940 ft | 481 kts | 296° |
| 2026-05-07 17:52 | 18.59397 | 71.40554 | 37942 ft | 481 kts | 296° |
| 2026-05-07 17:53 | 18.62387 | 71.34239 | 37943 ft | 481 kts | 296° |
| 2026-05-07 17:53 | 18.65372 | 71.27928 | 37942 ft | 481 kts | 296° |
| 2026-05-07 17:54 | 18.67542 | 71.23334 | 37954 ft | 471 kts | 296° |
| 2026-05-07 17:54 | 18.70473 | 71.17125 | 37957 ft | 482 kts | 296° |
| 2026-05-07 17:55 | 18.73454 | 71.10803 | 37960 ft | 482 kts | 296° |
| 2026-05-07 17:55 | 18.76438 | 71.04468 | 37959 ft | 482 kts | 296° |
| 2026-05-07 17:56 | 18.79418 | 70.98137 | 37960 ft | 482 kts | 296° |
| 2026-05-07 17:56 | 18.82378 | 70.91839 | 37961 ft | 482 kts | 296° |
| 2026-05-07 17:57 | 18.84871 | 70.86531 | 37963 ft | 482 kts | 296° |
| 2026-05-07 17:57 | 18.88326 | 70.79165 | 37965 ft | 481 kts | 296° |
| 2026-05-07 17:58 | 18.91297 | 70.72824 | 37959 ft | 482 kts | 296° |
| 2026-05-07 17:58 | 18.94246 | 70.66524 | 37967 ft | 482 kts | 296° |
| 2026-05-07 17:59 | 18.97212 | 70.60180 | 37970 ft | 482 kts | 296° |
| 2026-05-07 17:59 | 19.00180 | 70.53823 | 37970 ft | 482 kts | 296° |
| 2026-05-07 18:00 | 19.03141 | 70.47477 | 37968 ft | 482 kts | 296° |
| 2026-05-07 18:00 | 19.06082 | 70.41166 | 37969 ft | 482 kts | 296° |
| 2026-05-07 18:01 | 19.09042 | 70.34807 | 37971 ft | 482 kts | 296° |
| 2026-05-07 18:01 | 19.11995 | 70.28456 | 37965 ft | 482 kts | 296° |
| 2026-05-07 18:02 | 19.16428 | 70.18911 | 37973 ft | 482 kts | 296° |
| 2026-05-07 18:03 | 19.19379 | 70.12547 | 37985 ft | 482 kts | 296° |
| 2026-05-07 18:03 | 19.22308 | 70.06223 | 37971 ft | 482 kts | 296° |
| 2026-05-07 18:04 | 19.25258 | 69.99847 | 37986 ft | 482 kts | 296° |
| 2026-05-07 18:04 | 19.28201 | 69.93481 | 37985 ft | 482 kts | 296° |
| 2026-05-07 18:05 | 19.31132 | 69.87131 | 37983 ft | 482 kts | 296° |
| 2026-05-07 18:05 | 19.34072 | 69.80756 | 37989 ft | 482 kts | 296° |
| 2026-05-07 18:06 | 19.37012 | 69.74373 | 37992 ft | 482 kts | 296° |
| 2026-05-07 18:06 | 19.39949 | 69.67992 | 37989 ft | 482 kts | 296° |
| 2026-05-07 18:07 | 19.42884 | 69.61605 | 37991 ft | 482 kts | 296° |
| 2026-05-07 18:07 | 19.45813 | 69.55225 | 37988 ft | 482 kts | 296° |
| 2026-05-07 18:08 | 19.48722 | 69.48883 | 37990 ft | 482 kts | 296° |
| 2026-05-07 18:08 | 19.51652 | 69.42490 | 37988 ft | 482 kts | 296° |
| 2026-05-07 18:09 | 19.54580 | 69.36098 | 37992 ft | 482 kts | 296° |
| 2026-05-07 18:09 | 19.57569 | 69.29733 | 37991 ft | 482 kts | 297° |
| 2026-05-07 18:10 | 19.60612 | 69.23466 | 37992 ft | 482 kts | 297° |
| 2026-05-07 18:10 | 19.63670 | 69.17134 | 37994 ft | 482 kts | 297° |
| 2026-05-07 18:11 | 19.66720 | 69.10789 | 37992 ft | 482 kts | 297° |
| 2026-05-07 18:11 | 19.69759 | 69.04454 | 37999 ft | 482 kts | 297° |
| 2026-05-07 18:12 | 19.72781 | 68.98145 | 37994 ft | 482 kts | 297° |
| 2026-05-07 18:12 | 19.75819 | 68.91797 | 37999 ft | 482 kts | 297° |
| 2026-05-07 18:13 | 19.78851 | 68.85454 | 37997 ft | 482 kts | 297° |
| 2026-05-07 18:13 | 19.81886 | 68.79099 | 37996 ft | 482 kts | 296° |
| 2026-05-07 18:14 | 19.84917 | 68.72743 | 37996 ft | 482 kts | 296° |
| 2026-05-07 18:14 | 19.87923 | 68.66434 | 37998 ft | 482 kts | 296° |
| 2026-05-07 18:15 | 19.90948 | 68.60077 | 37999 ft | 482 kts | 296° |
| 2026-05-07 18:15 | 19.93974 | 68.53713 | 38001 ft | 482 kts | 296° |
| 2026-05-07 18:16 | 19.96994 | 68.47352 | 38001 ft | 482 kts | 296° |
| 2026-05-07 18:16 | 19.99990 | 68.41035 | 38003 ft | 482 kts | 296° |
| 2026-05-07 18:17 | 20.03008 | 68.34664 | 38003 ft | 482 kts | 296° |
| 2026-05-07 18:17 | 20.06018 | 68.28303 | 38000 ft | 482 kts | 296° |
| 2026-05-07 18:18 | 20.09032 | 68.21927 | 38001 ft | 482 kts | 296° |
| 2026-05-07 18:18 | 20.12042 | 68.15551 | 38002 ft | 482 kts | 296° |
| 2026-05-07 18:19 | 20.15028 | 68.09220 | 38002 ft | 482 kts | 296° |
| 2026-05-07 18:19 | 20.18030 | 68.02847 | 38003 ft | 482 kts | 296° |
| 2026-05-07 18:20 | 20.21039 | 67.96452 | 38004 ft | 482 kts | 296° |
| 2026-05-07 18:20 | 20.24020 | 67.90109 | 38004 ft | 482 kts | 296° |
| 2026-05-07 18:21 | 20.27020 | 67.83718 | 38003 ft | 482 kts | 296° |
| 2026-05-07 18:21 | 20.30015 | 67.77332 | 38005 ft | 482 kts | 296° |
| 2026-05-07 18:22 | 20.33008 | 67.70939 | 38003 ft | 482 kts | 296° |
| 2026-05-07 18:22 | 20.35979 | 67.64590 | 38003 ft | 482 kts | 296° |
| 2026-05-07 18:23 | 20.38968 | 67.58191 | 38000 ft | 482 kts | 296° |
| 2026-05-07 18:23 | 20.41958 | 67.51784 | 38000 ft | 482 kts | 296° |
| 2026-05-07 18:24 | 20.44945 | 67.45378 | 38003 ft | 482 kts | 296° |
| 2026-05-07 18:24 | 20.47907 | 67.39017 | 38002 ft | 482 kts | 296° |
| 2026-05-07 18:25 | 20.50887 | 67.32609 | 37998 ft | 482 kts | 296° |
| 2026-05-07 18:25 | 20.53867 | 67.26193 | 38000 ft | 482 kts | 296° |
| 2026-05-07 18:26 | 20.56844 | 67.19777 | 37999 ft | 482 kts | 296° |
| 2026-05-07 18:26 | 20.59815 | 67.13367 | 38001 ft | 482 kts | 296° |
| 2026-05-07 18:27 | 20.62765 | 67.06993 | 37996 ft | 482 kts | 296° |
| 2026-05-07 18:27 | 20.65737 | 67.00564 | 37999 ft | 483 kts | 296° |
| 2026-05-07 18:28 | 20.68707 | 66.94133 | 37999 ft | 483 kts | 296° |
| 2026-05-07 18:28 | 20.71673 | 66.87703 | 37998 ft | 483 kts | 296° |
| 2026-05-07 18:29 | 20.74620 | 66.81304 | 38001 ft | 483 kts | 295° |
| 2026-05-07 18:29 | 20.77580 | 66.74871 | 37999 ft | 483 kts | 295° |
| 2026-05-07 18:30 | 20.80542 | 66.68428 | 37993 ft | 483 kts | 295° |
| 2026-05-07 18:30 | 20.83497 | 66.61989 | 37997 ft | 483 kts | 295° |
| 2026-05-07 18:31 | 20.86434 | 66.55583 | 37996 ft | 483 kts | 295° |
| 2026-05-07 18:31 | 20.89387 | 66.49133 | 37997 ft | 483 kts | 295° |
| 2026-05-07 18:32 | 20.92340 | 66.42677 | 37996 ft | 483 kts | 295° |
| 2026-05-07 18:32 | 20.95287 | 66.36226 | 37996 ft | 483 kts | 295° |
| 2026-05-07 18:33 | 20.98233 | 66.29768 | 37996 ft | 483 kts | 295° |
| 2026-05-07 18:33 | 21.01163 | 66.23339 | 37996 ft | 483 kts | 295° |
| 2026-05-07 18:34 | 21.04108 | 66.16869 | 37994 ft | 483 kts | 295° |
| 2026-05-07 18:34 | 21.07049 | 66.10401 | 37998 ft | 484 kts | 295° |
| 2026-05-07 18:35 | 21.09989 | 66.03929 | 37993 ft | 483 kts | 295° |
| 2026-05-07 18:35 | 21.12940 | 65.97458 | 37996 ft | 484 kts | 296° |
| 2026-05-07 18:36 | 21.15957 | 65.91075 | 37990 ft | 483 kts | 296° |
| 2026-05-07 18:36 | 21.18998 | 65.84652 | 37990 ft | 483 kts | 296° |
| 2026-05-07 18:37 | 21.22010 | 65.78280 | 38011 ft | 486 kts | 296° |
| 2026-05-07 18:37 | 21.25031 | 65.71841 | 38008 ft | 482 kts | 296° |
| 2026-05-07 18:38 | 21.28023 | 65.65458 | 38009 ft | 483 kts | 296° |
| 2026-05-07 18:38 | 21.31037 | 65.59027 | 38010 ft | 483 kts | 296° |
| 2026-05-07 18:39 | 21.34055 | 65.52580 | 38013 ft | 483 kts | 296° |
| 2026-05-07 18:39 | 21.37059 | 65.46157 | 38007 ft | 483 kts | 296° |
| 2026-05-07 18:40 | 21.40073 | 65.39702 | 38006 ft | 483 kts | 296° |
| 2026-05-07 18:40 | 21.43060 | 65.33298 | 38005 ft | 483 kts | 296° |
| 2026-05-07 18:41 | 21.46062 | 65.26854 | 38004 ft | 483 kts | 296° |
| 2026-05-07 18:41 | 21.49064 | 65.20402 | 38004 ft | 482 kts | 296° |
| 2026-05-07 18:42 | 21.52060 | 65.13955 | 38004 ft | 483 kts | 296° |
| 2026-05-07 18:42 | 21.55054 | 65.07505 | 37999 ft | 482 kts | 296° |
| 2026-05-07 18:43 | 21.58023 | 65.01100 | 38005 ft | 482 kts | 296° |
| 2026-05-07 18:43 | 21.61007 | 64.94653 | 37998 ft | 483 kts | 296° |
| 2026-05-07 18:44 | 21.63998 | 64.88187 | 37998 ft | 482 kts | 296° |
| 2026-05-07 18:44 | 21.66973 | 64.81743 | 37998 ft | 481 kts | 296° |
| 2026-05-07 18:45 | 21.69953 | 64.75284 | 37993 ft | 483 kts | 296° |
| 2026-05-07 18:45 | 21.72915 | 64.68854 | 37998 ft | 483 kts | 295° |
| 2026-05-07 18:46 | 21.75888 | 64.62391 | 37997 ft | 482 kts | 295° |
| 2026-05-07 18:46 | 21.78860 | 64.55925 | 37997 ft | 482 kts | 295° |
| 2026-05-07 18:47 | 21.81830 | 64.49453 | 37999 ft | 483 kts | 295° |
| 2026-05-07 18:47 | 21.84801 | 64.42971 | 37995 ft | 483 kts | 295° |
| 2026-05-07 18:48 | 21.87748 | 64.36534 | 37993 ft | 482 kts | 295° |
| 2026-05-07 18:48 | 21.90708 | 64.30060 | 37988 ft | 481 kts | 295° |
| 2026-05-07 18:49 | 21.93659 | 64.23598 | 37983 ft | 480 kts | 295° |
| 2026-05-07 18:49 | 21.96604 | 64.17139 | 37986 ft | 481 kts | 295° |
| 2026-05-07 18:50 | 21.99527 | 64.10720 | 37986 ft | 480 kts | 295° |
| 2026-05-07 18:50 | 22.02464 | 64.04264 | 37987 ft | 480 kts | 295° |
| 2026-05-07 18:51 | 22.05400 | 63.97802 | 37985 ft | 480 kts | 295° |
| 2026-05-07 18:51 | 22.08336 | 63.91332 | 37984 ft | 481 kts | 295° |
| 2026-05-07 18:52 | 22.11269 | 63.84859 | 37981 ft | 480 kts | 295° |
| 2026-05-07 18:52 | 22.14175 | 63.78438 | 37980 ft | 480 kts | 295° |
| 2026-05-07 18:53 | 22.17098 | 63.71969 | 37983 ft | 480 kts | 295° |
| 2026-05-07 18:53 | 22.20020 | 63.65497 | 37982 ft | 480 kts | 295° |
| 2026-05-07 18:54 | 22.22923 | 63.59059 | 37977 ft | 479 kts | 295° |
| 2026-05-07 18:54 | 22.25831 | 63.52598 | 37979 ft | 479 kts | 295° |
| 2026-05-07 18:55 | 22.28744 | 63.46121 | 37981 ft | 479 kts | 295° |
| 2026-05-07 18:55 | 22.31652 | 63.39646 | 37980 ft | 479 kts | 295° |
| 2026-05-07 18:56 | 22.34557 | 63.33167 | 37973 ft | 479 kts | 295° |
| 2026-05-07 18:56 | 22.37441 | 63.26728 | 37975 ft | 480 kts | 295° |
| 2026-05-07 18:57 | 22.40344 | 63.20241 | 37971 ft | 479 kts | 295° |
| 2026-05-07 18:57 | 22.43241 | 63.13761 | 37970 ft | 479 kts | 295° |
| 2026-05-07 18:58 | 22.45910 | 63.07176 | 37970 ft | 478 kts | 291° |
| 2026-05-07 18:58 | 22.48510 | 63.00538 | 37968 ft | 480 kts | 292° |
| 2026-05-07 18:59 | 22.51095 | 62.93949 | 37968 ft | 479 kts | 292° |
| 2026-05-07 18:59 | 22.53637 | 62.87441 | 37981 ft | 463 kts | 291° |
| 2026-05-07 19:00 | 22.56150 | 62.80982 | 37984 ft | 474 kts | 291° |
| 2026-05-07 19:00 | 22.58731 | 62.74341 | 37918 ft | 481 kts | 291° |
| 2026-05-07 19:01 | 22.61299 | 62.67729 | 37816 ft | 478 kts | 291° |
| 2026-05-07 19:01 | 22.63871 | 62.61093 | 37713 ft | 478 kts | 291° |
| 2026-05-07 19:02 | 22.66443 | 62.54451 | 37677 ft | 478 kts | 291° |
| 2026-05-07 19:02 | 22.69017 | 62.47790 | 37683 ft | 480 kts | 291° |
| 2026-05-07 19:03 | 22.71587 | 62.41134 | 37687 ft | 479 kts | 291° |
| 2026-05-07 19:03 | 22.74132 | 62.34530 | 37676 ft | 479 kts | 291° |
| 2026-05-07 19:04 | 22.76698 | 62.27865 | 37679 ft | 479 kts | 291° |
| 2026-05-07 19:04 | 22.79261 | 62.21196 | 37673 ft | 479 kts | 291° |
| 2026-05-07 19:05 | 22.81821 | 62.14526 | 37680 ft | 480 kts | 291° |
| 2026-05-07 19:05 | 22.84362 | 62.07893 | 37681 ft | 479 kts | 291° |
| 2026-05-07 19:06 | 22.86916 | 62.01221 | 37689 ft | 480 kts | 291° |
| 2026-05-07 19:06 | 22.90745 | 61.91196 | 37686 ft | 480 kts | 291° |
| 2026-05-07 19:07 | 22.93296 | 61.84503 | 37692 ft | 480 kts | 291° |
| 2026-05-07 19:07 | 22.95824 | 61.77862 | 37691 ft | 479 kts | 291° |
| 2026-05-07 19:08 | 22.98368 | 61.71170 | 37685 ft | 480 kts | 291° |
| 2026-05-07 19:08 | 23.00910 | 61.64473 | 37691 ft | 480 kts | 291° |
| 2026-05-07 19:09 | 23.03452 | 61.57767 | 37691 ft | 480 kts | 291° |
| 2026-05-07 19:09 | 23.05973 | 61.51105 | 37686 ft | 481 kts | 291° |
| 2026-05-07 19:10 | 23.08511 | 61.44389 | 37700 ft | 480 kts | 291° |
| 2026-05-07 19:10 | 23.11041 | 61.37685 | 37696 ft | 480 kts | 291° |
| 2026-05-07 19:11 | 23.13573 | 61.30964 | 37701 ft | 480 kts | 291° |
| 2026-05-07 19:11 | 23.16096 | 61.24257 | 37705 ft | 480 kts | 291° |
| 2026-05-07 19:12 | 23.18612 | 61.17558 | 37699 ft | 481 kts | 291° |
| 2026-05-07 19:12 | 23.21132 | 61.10838 | 37697 ft | 481 kts | 291° |
| 2026-05-07 19:13 | 23.23652 | 61.04109 | 37697 ft | 480 kts | 291° |
| 2026-05-07 19:13 | 23.26169 | 60.97379 | 37695 ft | 481 kts | 291° |
| 2026-05-07 19:14 | 23.28686 | 60.90636 | 37702 ft | 481 kts | 291° |
| 2026-05-07 19:14 | 23.31178 | 60.83953 | 37703 ft | 480 kts | 291° |
| 2026-05-07 19:15 | 23.33685 | 60.77216 | 37700 ft | 480 kts | 291° |
| 2026-05-07 19:15 | 23.36190 | 60.70477 | 37704 ft | 480 kts | 291° |
| 2026-05-07 19:16 | 23.38695 | 60.63735 | 37702 ft | 480 kts | 290° |
| 2026-05-07 19:16 | 23.41154 | 60.57024 | 37705 ft | 480 kts | 290° |
| 2026-05-07 19:17 | 23.43618 | 60.50277 | 37702 ft | 480 kts | 290° |
| 2026-05-07 19:17 | 23.46084 | 60.43522 | 37697 ft | 480 kts | 290° |
| 2026-05-07 19:18 | 23.48551 | 60.36759 | 37698 ft | 480 kts | 290° |
| 2026-05-07 19:18 | 23.50997 | 60.30045 | 37705 ft | 480 kts | 290° |
| 2026-05-07 19:19 | 23.53457 | 60.23279 | 37711 ft | 480 kts | 290° |
| 2026-05-07 19:19 | 23.55914 | 60.16512 | 37704 ft | 480 kts | 290° |
| 2026-05-07 19:20 | 23.58366 | 60.09750 | 37706 ft | 480 kts | 290° |
| 2026-05-07 19:20 | 23.60817 | 60.02977 | 37704 ft | 480 kts | 290° |
| 2026-05-07 19:21 | 23.63249 | 59.96249 | 37707 ft | 480 kts | 290° |
| 2026-05-07 19:21 | 23.65694 | 59.89471 | 37698 ft | 480 kts | 290° |
| 2026-05-07 19:22 | 23.68133 | 59.82703 | 37703 ft | 480 kts | 290° |
| 2026-05-07 19:22 | 23.70569 | 59.75929 | 37713 ft | 479 kts | 290° |
| 2026-05-07 19:23 | 23.73004 | 59.69149 | 37713 ft | 479 kts | 290° |
| 2026-05-07 19:23 | 23.75415 | 59.62425 | 37715 ft | 479 kts | 290° |
| 2026-05-07 19:24 | 23.77841 | 59.55649 | 37715 ft | 479 kts | 290° |
| 2026-05-07 19:24 | 23.80261 | 59.48877 | 37710 ft | 479 kts | 290° |
| 2026-05-07 19:25 | 23.82678 | 59.42102 | 37718 ft | 479 kts | 290° |
| 2026-05-07 19:25 | 23.85075 | 59.35374 | 37713 ft | 478 kts | 289° |
| 2026-05-07 19:26 | 23.87483 | 59.28607 | 37716 ft | 478 kts | 289° |
| 2026-05-07 19:26 | 23.89887 | 59.21836 | 37719 ft | 478 kts | 289° |
| 2026-05-07 19:27 | 23.92289 | 59.15062 | 37723 ft | 478 kts | 289° |
| 2026-05-07 19:27 | 23.94575 | 59.08301 | 37719 ft | 477 kts | 287° |
| 2026-05-07 19:28 | 23.96727 | 59.01460 | 37732 ft | 476 kts | 287° |
| 2026-05-07 19:28 | 23.98904 | 58.94609 | 37732 ft | 477 kts | 288° |
| 2026-05-07 19:29 | 24.01091 | 58.87770 | 37734 ft | 476 kts | 288° |
| 2026-05-07 19:29 | 24.03263 | 58.80976 | 37730 ft | 476 kts | 288° |
| 2026-05-07 19:30 | 24.05445 | 58.74138 | 37734 ft | 476 kts | 288° |
| 2026-05-07 19:30 | 24.07625 | 58.67292 | 37728 ft | 476 kts | 287° |
| 2026-05-07 19:31 | 24.09798 | 58.60457 | 37739 ft | 476 kts | 287° |
| 2026-05-07 19:31 | 24.11969 | 58.53615 | 37743 ft | 475 kts | 287° |
| 2026-05-07 19:32 | 24.14119 | 58.46828 | 37749 ft | 475 kts | 287° |
| 2026-05-07 19:32 | 24.16281 | 58.39993 | 37753 ft | 475 kts | 287° |
| 2026-05-07 19:33 | 24.18440 | 58.33153 | 37752 ft | 475 kts | 287° |
| 2026-05-07 19:33 | 24.20228 | 58.27481 | 37754 ft | 474 kts | 287° |
| 2026-05-07 19:34 | 24.22154 | 58.21355 | 37765 ft | 477 kts | 287° |
| 2026-05-07 19:34 | 24.24277 | 58.14605 | 37763 ft | 473 kts | 287° |
| 2026-05-07 19:35 | 24.26419 | 58.07774 | 37766 ft | 474 kts | 287° |
| 2026-05-07 19:35 | 24.28558 | 58.00941 | 37770 ft | 474 kts | 287° |
| 2026-05-07 19:36 | 24.30676 | 57.94167 | 37769 ft | 474 kts | 287° |
| 2026-05-07 19:36 | 24.32812 | 57.87321 | 37767 ft | 474 kts | 287° |
| 2026-05-07 19:37 | 24.34940 | 57.80488 | 37772 ft | 474 kts | 287° |
| 2026-05-07 19:37 | 24.37070 | 57.73635 | 37773 ft | 474 kts | 287° |
| 2026-05-07 19:38 | 24.39194 | 57.66792 | 37776 ft | 474 kts | 287° |
| 2026-05-07 19:38 | 24.41313 | 57.59952 | 37771 ft | 474 kts | 287° |
| 2026-05-07 19:39 | 24.43418 | 57.53145 | 37776 ft | 474 kts | 287° |
| 2026-05-07 19:39 | 24.45192 | 57.47400 | 37780 ft | 474 kts | 287° |
| 2026-05-07 19:40 | 24.47636 | 57.39468 | 37456 ft | 467 kts | 287° |
| 2026-05-07 19:40 | 24.48672 | 57.36101 | 37200 ft | 466 kts | 287° |
| 2026-05-07 19:40 | 24.49696 | 57.32772 | 36606 ft | 466 kts | 287° |
| 2026-05-07 19:41 | 24.50734 | 57.29388 | 35690 ft | 472 kts | 287° |
| 2026-05-07 19:41 | 24.51790 | 57.25944 | 34557 ft | 480 kts | 287° |
| 2026-05-07 19:41 | 24.52859 | 57.22454 | 33626 ft | 484 kts | 287° |
| 2026-05-07 19:41 | 24.53935 | 57.18943 | 32827 ft | 483 kts | 287° |
| 2026-05-07 19:42 | 24.54998 | 57.15476 | 32328 ft | 475 kts | 287° |
| 2026-05-07 19:42 | 24.56035 | 57.12087 | 32022 ft | 463 kts | 287° |
| 2026-05-07 19:42 | 24.57053 | 57.08757 | 31489 ft | 457 kts | 287° |
| 2026-05-07 19:42 | 24.58057 | 57.05467 | 31000 ft | 451 kts | 287° |
| 2026-05-07 19:43 | 24.59037 | 57.02252 | 30426 ft | 448 kts | 287° |
| 2026-05-07 19:43 | 24.60021 | 56.99020 | 29846 ft | 445 kts | 287° |
| 2026-05-07 19:43 | 24.60999 | 56.95809 | 29212 ft | 442 kts | 288° |
| 2026-05-07 19:43 | 24.61967 | 56.92625 | 28643 ft | 436 kts | 287° |
| 2026-05-07 19:44 | 24.62925 | 56.89473 | 28066 ft | 432 kts | 288° |
| 2026-05-07 19:44 | 24.63882 | 56.86365 | 27511 ft | 428 kts | 289° |
| 2026-05-07 19:44 | 24.65072 | 56.83382 | 26886 ft | 426 kts | 296° |
| 2026-05-07 19:44 | 24.66568 | 56.80551 | 26164 ft | 428 kts | 301° |
| 2026-05-07 19:45 | 24.68122 | 56.77787 | 25753 ft | 422 kts | 300° |
| 2026-05-07 19:45 | 24.69129 | 56.75969 | 25461 ft | 420 kts | 300° |
| 2026-05-07 19:45 | 24.71137 | 56.72321 | 24524 ft | 423 kts | 300° |
| 2026-05-07 19:45 | 24.72657 | 56.69557 | 24050 ft | 419 kts | 300° |
| 2026-05-07 19:46 | 24.74158 | 56.66829 | 23608 ft | 416 kts | 300° |
| 2026-05-07 19:46 | 24.75656 | 56.64106 | 22784 ft | 419 kts | 301° |
| 2026-05-07 19:46 | 24.76655 | 56.62292 | 22376 ft | 417 kts | 301° |
| 2026-05-07 19:46 | 24.78142 | 56.59588 | 22013 ft | 409 kts | 301° |
| 2026-05-07 19:47 | 24.80100 | 56.56029 | 21296 ft | 404 kts | 301° |
| 2026-05-07 19:47 | 24.81065 | 56.54272 | 20851 ft | 405 kts | 301° |
| 2026-05-07 19:47 | 24.82982 | 56.50783 | 20231 ft | 400 kts | 301° |
| 2026-05-07 19:47 | 24.83948 | 56.49023 | 19854 ft | 398 kts | 301° |
| 2026-05-07 19:48 | 24.85834 | 56.45585 | 19122 ft | 395 kts | 302° |
| 2026-05-07 19:48 | 24.87220 | 56.42980 | 18567 ft | 393 kts | 297° |
| 2026-05-07 19:48 | 24.87906 | 56.41105 | 18207 ft | 393 kts | 287° |
| 2026-05-07 19:48 | 24.88396 | 56.38144 | 17614 ft | 392 kts | 274° |
| 2026-05-07 19:49 | 24.88304 | 56.35201 | 17092 ft | 388 kts | 266° |
| 2026-05-07 19:49 | 24.88125 | 56.32243 | 16543 ft | 385 kts | 266° |
| 2026-05-07 19:49 | 24.87970 | 56.29305 | 15997 ft | 383 kts | 267° |
| 2026-05-07 19:49 | 24.88226 | 56.25467 | 15292 ft | 379 kts | 284° |
| 2026-05-07 19:50 | 24.89149 | 56.22768 | 14904 ft | 375 kts | 299° |
| 2026-05-07 19:50 | 24.90031 | 56.21096 | 14821 ft | 373 kts | 301° |
| 2026-05-07 19:50 | 24.91333 | 56.18613 | 14772 ft | 376 kts | 300° |
| 2026-05-07 19:50 | 24.92605 | 56.16127 | 14773 ft | 377 kts | 300° |
| 2026-05-07 19:51 | 24.93889 | 56.13608 | 14775 ft | 377 kts | 300° |
| 2026-05-07 19:51 | 24.95174 | 56.11093 | 14776 ft | 376 kts | 300° |
| 2026-05-07 19:51 | 24.96460 | 56.08582 | 14781 ft | 376 kts | 300° |
| 2026-05-07 19:52 | 24.99686 | 56.03978 | 14786 ft | 375 kts | 313° |
| 2026-05-07 19:52 | 25.01440 | 56.01863 | 14776 ft | 371 kts | 313° |
| 2026-05-07 19:52 | 25.03149 | 55.99771 | 14683 ft | 361 kts | 313° |
| 2026-05-07 19:52 | 25.04804 | 55.97738 | 14424 ft | 353 kts | 313° |
| 2026-05-07 19:53 | 25.06431 | 55.95740 | 14106 ft | 347 kts | 313° |
| 2026-05-07 19:53 | 25.08033 | 55.93774 | 13800 ft | 342 kts | 313° |
| 2026-05-07 19:53 | 25.09613 | 55.91835 | 13474 ft | 337 kts | 313° |
| 2026-05-07 19:53 | 25.11152 | 55.89945 | 13118 ft | 333 kts | 313° |
| 2026-05-07 19:54 | 25.12691 | 55.88056 | 12771 ft | 329 kts | 312° |
| 2026-05-07 19:54 | 25.14207 | 55.86194 | 12429 ft | 325 kts | 312° |
| 2026-05-07 19:54 | 25.15670 | 55.84318 | 12084 ft | 321 kts | 307° |
| 2026-05-07 19:54 | 25.16866 | 55.82256 | 11750 ft | 317 kts | 301° |
| 2026-05-07 19:55 | 25.18000 | 55.80187 | 11415 ft | 313 kts | 301° |
| 2026-05-07 19:55 | 25.19135 | 55.78154 | 11128 ft | 308 kts | 301° |
| 2026-05-07 19:55 | 25.20241 | 55.76177 | 11004 ft | 297 kts | 301° |
| 2026-05-07 19:55 | 25.21304 | 55.74273 | 10753 ft | 292 kts | 301° |
| 2026-05-07 19:56 | 25.22359 | 55.72379 | 10512 ft | 287 kts | 301° |
| 2026-05-07 19:56 | 25.23397 | 55.70514 | 10244 ft | 283 kts | 301° |
| 2026-05-07 19:56 | 25.24421 | 55.68682 | 9987 ft | 278 kts | 301° |
| 2026-05-07 19:56 | 25.25434 | 55.66872 | 9741 ft | 274 kts | 301° |
| 2026-05-07 19:57 | 25.26429 | 55.65092 | 9486 ft | 271 kts | 301° |
| 2026-05-07 19:57 | 25.27412 | 55.63329 | 9204 ft | 268 kts | 301° |
| 2026-05-07 19:57 | 25.28385 | 55.61580 | 8935 ft | 267 kts | 301° |
| 2026-05-07 19:57 | 25.29150 | 55.59733 | 8650 ft | 263 kts | 279° |
| 2026-05-07 19:58 | 25.29056 | 55.57817 | 8610 ft | 250 kts | 252° |
| 2026-05-07 19:58 | 25.28189 | 55.56270 | 8358 ft | 235 kts | 224° |
| 2026-05-07 19:58 | 25.26803 | 55.55263 | 7979 ft | 241 kts | 210° |
| 2026-05-07 19:58 | 25.25231 | 55.54654 | 7564 ft | 243 kts | 186° |
| 2026-05-07 19:59 | 25.23575 | 55.54987 | 7173 ft | 245 kts | 155° |
| 2026-05-07 19:59 | 25.22294 | 55.56194 | 6783 ft | 245 kts | 126° |
| 2026-05-07 19:59 | 25.21407 | 55.57811 | 6401 ft | 245 kts | 119° |
| 2026-05-07 19:59 | 25.20593 | 55.59457 | 6006 ft | 244 kts | 119° |
| 2026-05-07 20:00 | 25.19767 | 55.61086 | 5600 ft | 242 kts | 120° |
| 2026-05-07 20:00 | 25.18918 | 55.62688 | 5199 ft | 241 kts | 122° |
| 2026-05-07 20:00 | 25.18067 | 55.64249 | 4806 ft | 239 kts | 122° |
| 2026-05-07 20:00 | 25.17201 | 55.65812 | 4399 ft | 239 kts | 123° |
| 2026-05-07 20:01 | 25.16332 | 55.67371 | 4098 ft | 239 kts | 123° |
| 2026-05-07 20:01 | 25.15460 | 55.68932 | 3975 ft | 239 kts | 123° |
| 2026-05-07 20:01 | 25.14589 | 55.70492 | 3677 ft | 238 kts | 123° |
| 2026-05-07 20:01 | 25.13538 | 55.71851 | 3345 ft | 226 kts | 146° |
| 2026-05-07 20:02 | 25.12147 | 55.72422 | 3016 ft | 209 kts | 181° |
| 2026-05-07 20:02 | 25.10795 | 55.72042 | 2701 ft | 200 kts | 213° |
| 2026-05-07 20:02 | 25.09899 | 55.70930 | 2372 ft | 195 kts | 249° |
| 2026-05-07 20:02 | 25.09744 | 55.69493 | 2101 ft | 193 kts | 272° |
| 2026-05-07 20:03 | 25.09773 | 55.68014 | 2019 ft | 194 kts | 272° |
| 2026-05-07 20:03 | 25.09799 | 55.66531 | 2019 ft | 193 kts | 272° |
| 2026-05-07 20:03 | 25.09897 | 55.65059 | 2022 ft | 192 kts | 281° |
| 2026-05-07 20:03 | 25.10318 | 55.63660 | 2022 ft | 193 kts | 294° |
| 2026-05-07 20:04 | 25.10944 | 55.62353 | 2024 ft | 193 kts | 299° |
| 2026-05-07 20:04 | 25.11634 | 55.61088 | 2027 ft | 192 kts | 301° |
| 2026-05-07 20:04 | 25.12332 | 55.59831 | 2025 ft | 193 kts | 301° |
| 2026-05-07 20:04 | 25.13032 | 55.58568 | 2026 ft | 193 kts | 301° |
| 2026-05-07 20:05 | 25.13717 | 55.57332 | 2025 ft | 185 kts | 300° |
| 2026-05-07 20:05 | 25.14372 | 55.56148 | 2025 ft | 182 kts | 300° |
| 2026-05-07 20:05 | 25.15010 | 55.54995 | 2021 ft | 163 kts | 300° |
| 2026-05-07 20:05 | 25.15559 | 55.54006 | 2019 ft | 143 kts | 300° |
| 2026-05-07 20:06 | 25.16063 | 55.53092 | 2026 ft | 138 kts | 300° |
| 2026-05-07 20:06 | 25.16560 | 55.52194 | 2024 ft | 137 kts | 300° |
| 2026-05-07 20:06 | 25.17055 | 55.51300 | 2004 ft | 136 kts | 300° |
| 2026-05-07 20:06 | 25.17548 | 55.50409 | 2002 ft | 137 kts | 300° |
| 2026-05-07 20:07 | 25.18044 | 55.49512 | 2005 ft | 137 kts | 300° |
| 2026-05-07 20:07 | 25.18540 | 55.48616 | 1867 ft | 137 kts | 300° |
| 2026-05-07 20:07 | 25.19033 | 55.47725 | 1697 ft | 135 kts | 301° |
| 2026-05-07 20:07 | 25.19516 | 55.46853 | 1542 ft | 134 kts | 301° |
| 2026-05-07 20:08 | 25.20003 | 55.45971 | 1359 ft | 135 kts | 301° |
| 2026-05-07 20:08 | 25.20494 | 55.45082 | 1190 ft | 136 kts | 301° |
| 2026-05-07 20:08 | 25.20991 | 55.44183 | 1014 ft | 138 kts | 301° |
| 2026-05-07 20:08 | 25.21494 | 55.43272 | 848 ft | 140 kts | 301° |
| 2026-05-07 20:09 | 25.22000 | 55.42353 | 668 ft | 140 kts | 303° |
| 2026-05-07 20:09 | 25.22492 | 55.41421 | 498 ft | 140 kts | 303° |
| 2026-05-07 20:09 | 25.22996 | 55.40495 | 307 ft | 140 kts | 304° |
| 2026-05-07 20:10 | 25.23985 | 55.38776 | 27 ft | 103 kts | 303° |
| 2026-05-07 20:10 | 25.24273 | 55.38259 | 27 ft | 62 kts | 302° |
| 2026-05-07 20:10 | 25.24467 | 55.37908 | 27 ft | 46 kts | 301° |
| 2026-05-07 20:10 | 25.24590 | 55.37684 | 27 ft | 34 kts | 301° |
| 2026-05-07 20:11 | 25.24724 | 55.37433 | 27 ft | 36 kts | 295° |
| 2026-05-07 20:11 | 25.24782 | 55.37205 | 27 ft | 25 kts | 271° |
| 2026-05-07 20:11 | 25.24783 | 55.37159 | 27 ft | 0 kts | 270° |
| 2026-05-07 20:12 | 25.24783 | 55.37132 | 27 ft | 8 kts | 270° |
| 2026-05-07 20:13 | 25.24784 | 55.37049 | 27 ft | 13 kts | 271° |
| 2026-05-07 20:13 | 25.24804 | 55.36937 | 27 ft | 17 kts | 291° |
| 2026-05-07 20:13 | 25.24853 | 55.36808 | 27 ft | 20 kts | 286° |
| 2026-05-07 20:13 | 25.24897 | 55.36657 | 27 ft | 22 kts | 296° |
| 2026-05-07 20:14 | 25.24970 | 55.36504 | 27 ft | 23 kts | 301° |
| 2026-05-07 20:14 | 25.25063 | 55.36351 | 27 ft | 25 kts | 303° |
| 2026-05-07 20:14 | 25.25154 | 55.36186 | 27 ft | 26 kts | 301° |
| 2026-05-07 20:14 | 25.25246 | 55.36018 | 27 ft | 26 kts | 301° |
| 2026-05-07 20:15 | 25.25335 | 55.35858 | 27 ft | 23 kts | 302° |
| 2026-05-07 20:15 | 25.25420 | 55.35705 | 27 ft | 24 kts | 303° |
| 2026-05-07 20:15 | 25.25500 | 55.35563 | 27 ft | 21 kts | 301° |
| 2026-05-07 20:15 | 25.25577 | 55.35424 | 27 ft | 22 kts | 301° |
| 2026-05-07 20:16 | 25.25651 | 55.35288 | 27 ft | 18 kts | 301° |
| 2026-05-07 20:16 | 25.25717 | 55.35168 | 27 ft | 19 kts | 301° |
| 2026-05-07 20:16 | 25.25787 | 55.35041 | 27 ft | 20 kts | 301° |
| 2026-05-07 20:16 | 25.25837 | 55.34932 | 27 ft | 15 kts | 282° |
| 2026-05-07 20:17 | 25.25844 | 55.34811 | 27 ft | 17 kts | 271° |
| 2026-05-07 20:17 | 25.25859 | 55.34728 | 27 ft | 3 kts | 297° |
| 2026-05-07 20:17 | 25.25879 | 55.34686 | 27 ft | 9 kts | 299° |
| 2026-05-07 20:17 | 25.25917 | 55.34614 | 27 ft | 12 kts | 303° |
| 2026-05-07 20:18 | 25.25965 | 55.34533 | 27 ft | 10 kts | 302° |
| 2026-05-07 20:18 | 25.25975 | 55.34485 | 27 ft | 7 kts | 251° |
| 2026-05-07 20:18 | 25.25947 | 55.34452 | 27 ft | 1 kts | 216° |
| 2026-05-07 20:18 | 25.25937 | 55.34445 | 27 ft | 1 kts | 209° |
| 2026-05-07 20:19 | 25.25932 | 55.34441 | 27 ft | 1 kts | 209° |
| 2026-05-07 20:19 | 25.25928 | 55.34439 | 27 ft | 1 kts | 209° |
| 2026-05-07 20:19 | 25.25927 | 55.34438 | 27 ft | 0 kts | 210° |